Observation data for Persimmon Gap on 04/23/2019      Previous  Date  Next       Current Mesonet Observations  Soil Data  Daily Summary Page  Observations in Plain Language
KPG1 230500Z 01015KT 19/15 A2993 RMK A01 T01900146  RH  075%=      5-min Rain = 0
KPG1 230501Z 02016KT 19/15 A2993 RMK A01 T01900146  RH  075%=      5-min Rain = 0
KPG1 230502Z 01015G20KT 19/15 A2993 RMK A01 T01900146  RH  076%=      5-min Rain = 0
KPG1 230503Z 02015KT 19/15 A2993 RMK A01 T01890145  RH  076%=      5-min Rain = 0
KPG1 230504Z 02015KT 19/15 A2993 RMK A01 T01900146  RH  076%=      5-min Rain = 0
KPG1 230505Z 01015KT 19/15 A2993 RMK A01 T01900146  RH  076%=      5-min Rain = 0
KPG1 230506Z 00017KT 19/15 A2992 RMK A01 T01890145  RH  076%=      5-min Rain = 0
KPG1 230507Z 01016KT 19/15 A2992 RMK A01 T01900146  RH  076%=      5-min Rain = 0
KPG1 230508Z 01014KT 19/15 A2992 RMK A01 T01900146  RH  076%=      5-min Rain = 0
KPG1 230509Z 00015KT 19/15 A2992 RMK A01 T01890145  RH  076%=      5-min Rain = 0
KPG1 230510Z 00016KT 19/15 A2992 RMK A01 T01890146  RH  076%=      5-min Rain = 0
KPG1 230511Z 00014KT 19/15 A2992 RMK A01 T01890146  RH  076%=      5-min Rain = 0
KPG1 230512Z 01015KT 19/15 A2992 RMK A01 T01890145  RH  076%=      5-min Rain = 0
KPG1 230513Z 01015KT 19/15 A2992 RMK A01 T01890146  RH  076%=      5-min Rain = 0
KPG1 230514Z 01016KT 19/15 A2992 RMK A01 T01890146  RH  076%=      5-min Rain = 0
KPG1 230515Z 01017KT 19/15 A2992 RMK A01 T01890146  RH  076%=      5-min Rain = 0
KPG1 230516Z 01016KT 19/15 A2992 RMK A01 T01890146  RH  076%=      5-min Rain = 0
KPG1 230517Z 01016KT 19/15 A2992 RMK A01 T01890146  RH  076%=      5-min Rain = 0
KPG1 230518Z 01015KT 19/15 A2992 RMK A01 T01890146  RH  076%=      5-min Rain = 0
KPG1 230519Z 00016KT 19/15 A2992 RMK A01 T01890145  RH  076%=      5-min Rain = 0
KPG1 230520Z 01015KT 19/15 A2992 RMK A01 T01890145  RH  076%=      5-min Rain = 0
KPG1 230521Z 01016KT 19/15 A2992 RMK A01 T01890146  RH  076%=      5-min Rain = 0
KPG1 230522Z 01017KT 19/15 A2992 RMK A01 T01890146  RH  076%=      5-min Rain = 0
KPG1 230523Z 01015KT 19/15 A2992 RMK A01 T01890146  RH  076%=      5-min Rain = 0
KPG1 230524Z 01017KT 19/15 A2992 RMK A01 T01880145  RH  076%=      5-min Rain = 0
KPG1 230525Z 01015KT 19/15 A2992 RMK A01 T01880145  RH  076%=      5-min Rain = 0
KPG1 230526Z 01013KT 19/15 A2992 RMK A01 T01880145  RH  076%=      5-min Rain = 0
KPG1 230527Z 01014KT 19/15 A2992 RMK A01 T01880145  RH  076%=      5-min Rain = 0
KPG1 230528Z 01014KT 19/15 A2992 RMK A01 T01880146  RH  076%=      5-min Rain = 0
KPG1 230529Z 02014KT 19/15 A2992 RMK A01 T01880145  RH  076%=      5-min Rain = 0
KPG1 230530Z 01015KT 19/15 A2992 RMK A01 T01880145  RH  076%=      5-min Rain = 0
KPG1 230531Z 01015KT 19/15 A2992 RMK A01 T01880145  RH  076%=      5-min Rain = 0
KPG1 230532Z 00016KT 19/15 A2992 RMK A01 T01880145  RH  076%=      5-min Rain = 0
KPG1 230533Z 01013KT 19/15 A2992 RMK A01 T01880145  RH  076%=      5-min Rain = 0
KPG1 230534Z 01014KT 19/15 A2992 RMK A01 T01890146  RH  076%=      5-min Rain = 0
KPG1 230535Z 01013KT 19/15 A2992 RMK A01 T01880145  RH  076%=      5-min Rain = 0
KPG1 230536Z 01012KT 19/15 A2992 RMK A01 T01880145  RH  076%=      5-min Rain = 0
KPG1 230537Z 01015KT 19/15 A2992 RMK A01 T01880145  RH  076%=      5-min Rain = 0
KPG1 230538Z 00016KT 19/15 A2992 RMK A01 T01880145  RH  076%=      5-min Rain = 0
KPG1 230539Z 01014KT 19/15 A2992 RMK A01 T01880145  RH  076%=      5-min Rain = 0
KPG1 230540Z 01014KT 19/15 A2992 RMK A01 T01880145  RH  076%=      5-min Rain = 0
KPG1 230541Z 01014KT 19/15 A2992 RMK A01 T01880145  RH  076%=      5-min Rain = 0
KPG1 230542Z 01014KT 19/15 A2992 RMK A01 T01880145  RH  076%=      5-min Rain = 0
KPG1 230543Z 01015KT 19/15 A2992 RMK A01 T01880145  RH  076%=      5-min Rain = 0
KPG1 230544Z 01014KT 19/15 A2992 RMK A01 T01880145  RH  076%=      5-min Rain = 0
KPG1 230545Z 01012KT 19/15 A2992 RMK A01 T01880145  RH  076%=      5-min Rain = 0
KPG1 230546Z 01012KT 19/15 A2992 RMK A01 T01870145  RH  076%=      5-min Rain = 0
KPG1 230547Z 00014KT 19/15 A2992 RMK A01 T01870145  RH  076%=      5-min Rain = 0
KPG1 230548Z 01013KT 19/15 A2992 RMK A01 T01870145  RH  076%=      5-min Rain = 0
KPG1 230549Z 01013KT 19/15 A2991 RMK A01 T01870145  RH  076%=      5-min Rain = 0
KPG1 230550Z 01012KT 19/15 A2991 RMK A01 T01870145  RH  076%=      5-min Rain = 0
KPG1 230551Z 01014KT 19/15 A2991 RMK A01 T01870145  RH  076%=      5-min Rain = 0
KPG1 230552Z 01013KT 19/15 A2991 RMK A01 T01870145  RH  076%=      5-min Rain = 0
KPG1 230553Z 01014KT 19/15 A2991 RMK A01 T01870145  RH  076%=      5-min Rain = 0
KPG1 230554Z 01014KT 19/15 A2991 RMK A01 T01870145  RH  076%=      5-min Rain = 0
KPG1 230555Z 01013KT 19/14 A2991 RMK A01 T01870144  RH  076%=      5-min Rain = 0
KPG1 230556Z 02014KT 19/15 A2991 RMK A01 T01870145  RH  076%=      5-min Rain = 0
KPG1 230557Z 01014KT 19/14 A2991 RMK A01 T01870144  RH  076%=      5-min Rain = 0
KPG1 230558Z 02013KT 19/14 A2991 RMK A01 T01870144  RH  076%=      5-min Rain = 0
KPG1 230559Z 02014KT 19/14 A2991 RMK A01 T01870144  RH  076%=      5-min Rain = 0
KPG1 230600Z 01014KT 19/15 A2991 RMK A01 T01870145  RH  076%=      5-min Rain = 0
KPG1 230601Z 02012KT 19/14 A2991 RMK A01 T01870144  RH  076%=      5-min Rain = 0
KPG1 230602Z 02013KT 19/14 A2991 RMK A01 T01860144  RH  076%=      5-min Rain = 0
KPG1 230603Z 01013G18KT 19/14 A2991 RMK A01 T01860144  RH  076%=      5-min Rain = 0
KPG1 230604Z 02013KT 19/14 A2991 RMK A01 T01860144  RH  076%=      5-min Rain = 0
KPG1 230605Z 01014KT 19/14 A2991 RMK A01 T01870144  RH  076%=      5-min Rain = 0
KPG1 230606Z 02013KT 19/14 A2991 RMK A01 T01870144  RH  076%=      5-min Rain = 0
KPG1 230607Z 02014KT 19/14 A2992 RMK A01 T01870144  RH  076%=      5-min Rain = 0
KPG1 230608Z 02014KT 19/14 A2992 RMK A01 T01870144  RH  076%=      5-min Rain = 0
KPG1 230609Z 02012KT 19/14 A2992 RMK A01 T01870144  RH  076%=      5-min Rain = 0
KPG1 230610Z 02012KT 19/14 A2992 RMK A01 T01870144  RH  076%=      5-min Rain = 0
KPG1 230611Z 02014KT 19/14 A2992 RMK A01 T01870144  RH  076%=      5-min Rain = 0
KPG1 230612Z 02014KT 19/14 A2992 RMK A01 T01870144  RH  076%=      5-min Rain = 0
KPG1 230613Z 02013KT 19/14 A2992 RMK A01 T01870144  RH  076%=      5-min Rain = 0
KPG1 230614Z 02013KT 19/14 A2992 RMK A01 T01870144  RH  076%=      5-min Rain = 0
KPG1 230615Z 02013KT 19/14 A2992 RMK A01 T01870144  RH  076%=      5-min Rain = 0
KPG1 230616Z 02013KT 19/14 A2992 RMK A01 T01870144  RH  076%=      5-min Rain = 0
KPG1 230617Z 02013KT 19/14 A2992 RMK A01 T01870144  RH  076%=      5-min Rain = 0
KPG1 230618Z 02014KT 19/14 A2992 RMK A01 T01870144  RH  076%=      5-min Rain = 0
KPG1 230619Z 02014KT 19/14 A2992 RMK A01 T01870144  RH  076%=      5-min Rain = 0
KPG1 230620Z 01012KT 19/14 A2992 RMK A01 T01870144  RH  076%=      5-min Rain = 0
KPG1 230621Z 02013KT 19/14 A2992 RMK A01 T01870144  RH  076%=      5-min Rain = 0
KPG1 230622Z 03013KT 19/14 A2992 RMK A01 T01870144  RH  076%=      5-min Rain = 0
KPG1 230623Z 01012KT 19/15 A2992 RMK A01 T01870145  RH  076%=      5-min Rain = 0
KPG1 230624Z 02013KT 19/15 A2992 RMK A01 T01870145  RH  076%=      5-min Rain = 0
KPG1 230625Z 02015KT 19/14 A2992 RMK A01 T01860144  RH  076%=      5-min Rain = 0
KPG1 230626Z 02015KT 19/14 A2992 RMK A01 T01860144  RH  076%=      5-min Rain = 0
KPG1 230627Z 02015KT 19/14 A2992 RMK A01 T01860144  RH  076%=      5-min Rain = 0
KPG1 230628Z 02014KT 19/14 A2992 RMK A01 T01860144  RH  076%=      5-min Rain = 0
KPG1 230629Z 02015KT 19/14 A2992 RMK A01 T01860144  RH  076%=      5-min Rain = 0
KPG1 230630Z 02015KT 19/14 A2992 RMK A01 T01860144  RH  077%=      5-min Rain = 0
KPG1 230631Z 02015KT 19/14 A2992 RMK A01 T01860144  RH  077%=      5-min Rain = 0
KPG1 230632Z 02014KT 19/14 A2992 RMK A01 T01860144  RH  077%=      5-min Rain = 0
KPG1 230633Z 02014KT 19/14 A2991 RMK A01 T01860144  RH  077%=      5-min Rain = 0
KPG1 230634Z 01015KT 19/14 A2991 RMK A01 T01860144  RH  077%=      5-min Rain = 0
KPG1 230635Z 02013KT 19/14 A2991 RMK A01 T01850144  RH  077%=      5-min Rain = 0
KPG1 230636Z 01013KT 19/14 A2991 RMK A01 T01850144  RH  077%=      5-min Rain = 0
KPG1 230637Z 01013KT 19/14 A2991 RMK A01 T01850144  RH  077%=      5-min Rain = 0
KPG1 230638Z 01013KT 19/14 A2991 RMK A01 T01850144  RH  077%=      5-min Rain = 0
KPG1 230639Z 01013KT 19/14 A2991 RMK A01 T01850143  RH  077%=      5-min Rain = 0
KPG1 230640Z 02014KT 19/14 A2991 RMK A01 T01850144  RH  077%=      5-min Rain = 0
KPG1 230641Z 02015KT 19/14 A2991 RMK A01 T01850144  RH  077%=      5-min Rain = 0
KPG1 230642Z 02016KT 19/14 A2991 RMK A01 T01850144  RH  077%=      5-min Rain = 0
KPG1 230643Z 02015KT 19/14 A2991 RMK A01 T01850143  RH  077%=      5-min Rain = 0
KPG1 230644Z 02015KT 19/14 A2991 RMK A01 T01850144  RH  077%=      5-min Rain = 0
KPG1 230645Z 02014KT 19/14 A2991 RMK A01 T01850143  RH  077%=      5-min Rain = 0
KPG1 230646Z 02014KT 19/14 A2991 RMK A01 T01850143  RH  077%=      5-min Rain = 0
KPG1 230647Z 01015KT 19/14 A2991 RMK A01 T01850144  RH  077%=      5-min Rain = 0
KPG1 230648Z 01015KT 19/14 A2991 RMK A01 T01850143  RH  077%=      5-min Rain = 0
KPG1 230649Z 01013KT 19/14 A2991 RMK A01 T01850143  RH  077%=      5-min Rain = 0
KPG1 230650Z 01014KT 19/14 A2991 RMK A01 T01850143  RH  077%=      5-min Rain = 0
KPG1 230651Z 01014KT 19/14 A299 RMK A01 T01850143  RH  077%=      5-min Rain = 0
KPG1 230652Z 01015KT 19/14 A299 RMK A01 T01850143  RH  077%=      5-min Rain = 0
KPG1 230653Z 01016KT 19/14 A299 RMK A01 T01850143  RH  077%=      5-min Rain = 0
KPG1 230654Z 01015KT 19/14 A299 RMK A01 T01850143  RH  077%=      5-min Rain = 0
KPG1 230655Z 01015KT 19/14 A299 RMK A01 T01850143  RH  077%=      5-min Rain = 0
KPG1 230656Z 01015KT 19/14 A2991 RMK A01 T01850143  RH  077%=      5-min Rain = 0
KPG1 230657Z 01014KT 19/14 A2991 RMK A01 T01850143  RH  077%=      5-min Rain = 0
KPG1 230658Z 01014KT 19/14 A2991 RMK A01 T01850143  RH  077%=      5-min Rain = 0
KPG1 230659Z 01015KT 19/14 A2991 RMK A01 T01850143  RH  077%=      5-min Rain = 0
KPG1 230700Z 01014KT 19/14 A2991 RMK A01 T01850143  RH  077%=      5-min Rain = 0
KPG1 230701Z 01014KT 18/14 A2991 RMK A01 T01840143  RH  077%=      5-min Rain = 0
KPG1 230702Z 01012KT 19/14 A2991 RMK A01 T01850143  RH  077%=      5-min Rain = 0
KPG1 230703Z 01015KT 19/14 A2991 RMK A01 T01850143  RH  077%=      5-min Rain = 0
KPG1 230704Z 02015KT 19/14 A2991 RMK A01 T01850143  RH  077%=      5-min Rain = 0
KPG1 230705Z 02015KT 19/14 A2991 RMK A01 T01850143  RH  077%=      5-min Rain = 0
KPG1 230706Z 02016KT 19/14 A2991 RMK A01 T01850143  RH  077%=      5-min Rain = 0
KPG1 230707Z 02016KT 19/14 A2991 RMK A01 T01850143  RH  076%=      5-min Rain = 0
KPG1 230708Z 02016KT 19/14 A2991 RMK A01 T01850143  RH  076%=      5-min Rain = 0
KPG1 230709Z 02014KT 19/14 A2991 RMK A01 T01850143  RH  076%=      5-min Rain = 0
KPG1 230710Z 02015KT 19/14 A2991 RMK A01 T01860143  RH  076%=      5-min Rain = 0
KPG1 230711Z 02014KT 19/14 A2991 RMK A01 T01850143  RH  076%=      5-min Rain = 0
KPG1 230712Z 02015KT 19/14 A2991 RMK A01 T01850143  RH  076%=      5-min Rain = 0
KPG1 230713Z 01014KT 19/14 A2991 RMK A01 T01850143  RH  076%=      5-min Rain = 0
KPG1 230714Z 02013KT 19/14 A2991 RMK A01 T01850143  RH  076%=      5-min Rain = 0
KPG1 230715Z 02014KT 19/14 A2991 RMK A01 T01850143  RH  076%=      5-min Rain = 0
KPG1 230716Z 02014KT 18/14 A2991 RMK A01 T01840142  RH  076%=      5-min Rain = 0
KPG1 230717Z 02014KT 18/14 A2991 RMK A01 T01840143  RH  076%=      5-min Rain = 0
KPG1 230718Z 02015KT 18/14 A2991 RMK A01 T01840142  RH  076%=      5-min Rain = 0
KPG1 230719Z 02016KT 19/14 A2991 RMK A01 T01850143  RH  076%=      5-min Rain = 0
KPG1 230720Z 03014KT 19/14 A2991 RMK A01 T01850143  RH  076%=      5-min Rain = 0
KPG1 230721Z 02015KT 19/14 A299 RMK A01 T01850143  RH  077%=      5-min Rain = 0
KPG1 230722Z 02014KT 18/14 A299 RMK A01 T01840143  RH  077%=      5-min Rain = 0
KPG1 230723Z 01013KT 18/14 A2991 RMK A01 T01840143  RH  077%=      5-min Rain = 0
KPG1 230724Z 01015KT 18/14 A2991 RMK A01 T01840143  RH  077%=      5-min Rain = 0
KPG1 230725Z 02014KT 18/14 A2991 RMK A01 T01840143  RH  077%=      5-min Rain = 0
KPG1 230726Z 02013KT 18/14 A2991 RMK A01 T01840143  RH  077%=      5-min Rain = 0
KPG1 230727Z 02015KT 18/14 A2991 RMK A01 T01840142  RH  077%=      5-min Rain = 0
KPG1 230728Z 02015KT 18/14 A2991 RMK A01 T01840143  RH  077%=      5-min Rain = 0
KPG1 230729Z 02015KT 18/14 A299 RMK A01 T01840143  RH  077%=      5-min Rain = 0
KPG1 230730Z 02015KT 18/14 A2991 RMK A01 T01840143  RH  077%=      5-min Rain = 0
KPG1 230731Z 02014KT 18/14 A2991 RMK A01 T01840142  RH  077%=      5-min Rain = 0
KPG1 230732Z 02014KT 18/14 A2991 RMK A01 T01840142  RH  077%=      5-min Rain = 0
KPG1 230733Z 01013KT 18/14 A299 RMK A01 T01840142  RH  077%=      5-min Rain = 0
KPG1 230734Z 02014KT 18/14 A299 RMK A01 T01840142  RH  077%=      5-min Rain = 0
KPG1 230735Z 02014KT 19/14 A299 RMK A01 T01850143  RH  077%=      5-min Rain = 0
KPG1 230736Z 02014KT 18/14 A299 RMK A01 T01840143  RH  077%=      5-min Rain = 0
KPG1 230737Z 02014KT 19/14 A299 RMK A01 T01850143  RH  076%=      5-min Rain = 0
KPG1 230738Z 02015KT 19/14 A299 RMK A01 T01850143  RH  076%=      5-min Rain = 0
KPG1 230739Z 02013KT 19/14 A299 RMK A01 T01850143  RH  076%=      5-min Rain = 0
KPG1 230740Z 01013KT 18/14 A299 RMK A01 T01840142  RH  076%=      5-min Rain = 0
KPG1 230741Z 01013KT 18/14 A299 RMK A01 T01840143  RH  077%=      5-min Rain = 0
KPG1 230742Z 01014KT 18/14 A299 RMK A01 T01840143  RH  077%=      5-min Rain = 0
KPG1 230743Z 02014KT 19/14 A299 RMK A01 T01850142  RH  076%=      5-min Rain = 0
KPG1 230744Z 02014KT 19/14 A299 RMK A01 T01850143  RH  076%=      5-min Rain = 0
KPG1 230745Z 02016KT 19/14 A299 RMK A01 T01850143  RH  076%=      5-min Rain = 0
KPG1 230746Z 01014KT 19/14 A299 RMK A01 T01850143  RH  076%=      5-min Rain = 0
KPG1 230747Z 01014KT 19/14 A299 RMK A01 T01850142  RH  076%=      5-min Rain = 0
KPG1 230748Z 01014KT 19/14 A299 RMK A01 T01850143  RH  076%=      5-min Rain = 0
KPG1 230749Z 02014KT 19/14 A299 RMK A01 T01860143  RH  076%=      5-min Rain = 0
KPG1 230750Z 02012KT 19/14 A299 RMK A01 T01850143  RH  076%=      5-min Rain = 0
KPG1 230751Z 02012KT 19/14 A299 RMK A01 T01850143  RH  076%=      5-min Rain = 0
KPG1 230752Z 02013KT 19/14 A299 RMK A01 T01850143  RH  076%=      5-min Rain = 0
KPG1 230753Z 02013KT 19/14 A299 RMK A01 T01850143  RH  077%=      5-min Rain = 0
KPG1 230754Z 02012KT 19/14 A299 RMK A01 T01850143  RH  077%=      5-min Rain = 0
KPG1 230755Z 02013KT 19/14 A299 RMK A01 T01850143  RH  076%=      5-min Rain = 0
KPG1 230756Z 03015KT 19/14 A299 RMK A01 T01850143  RH  076%=      5-min Rain = 0
KPG1 230757Z 03012KT 19/14 A299 RMK A01 T01850142  RH  076%=      5-min Rain = 0
KPG1 230758Z 02012KT 18/14 A299 RMK A01 T01840142  RH  076%=      5-min Rain = 0
KPG1 230759Z 03013KT 18/14 A299 RMK A01 T01830142  RH  077%=      5-min Rain = 0
KPG1 230800Z 03011KT 18/14 A299 RMK A01 T01820142  RH  077%=      5-min Rain = 0
KPG1 230801Z 03011KT 18/14 A2991 RMK A01 T01800141  RH  078%=      5-min Rain = 0
KPG1 230802Z 03010KT 18/14 A2991 RMK A01 T01800141  RH  078%=      5-min Rain = 0
KPG1 230803Z 02011KT 18/14 A2991 RMK A01 T01790142  RH  079%=      5-min Rain = 0
KPG1 230804Z 03011KT 18/14 A2991 RMK A01 T01790142  RH  079%=      5-min Rain = 0
KPG1 230805Z 04011KT 18/14 A299 RMK A01 T01790142  RH  079%=      5-min Rain = 0
KPG1 230806Z 04012KT 18/14 A299 RMK A01 T01790142  RH  079%=      5-min Rain = 0
KPG1 230807Z 04012KT 18/14 A299 RMK A01 T01790142  RH  079%=      5-min Rain = 0
KPG1 230808Z 03013KT 18/14 A2991 RMK A01 T01800142  RH  079%=      5-min Rain = 0
KPG1 230809Z 03011KT 18/14 A2991 RMK A01 T01800142  RH  079%=      5-min Rain = 0
KPG1 230810Z 03011KT 18/14 A2991 RMK A01 T01800142  RH  078%=      5-min Rain = 0
KPG1 230811Z 04011KT 18/14 A2991 RMK A01 T01800142  RH  078%=      5-min Rain = 0
KPG1 230812Z 04011KT 18/14 A299 RMK A01 T01800142  RH  078%=      5-min Rain = 0
KPG1 230813Z 04011KT 18/14 A299 RMK A01 T01800142  RH  078%=      5-min Rain = 0
KPG1 230814Z 04011KT 18/14 A299 RMK A01 T01800142  RH  079%=      5-min Rain = 0
KPG1 230815Z 03012KT 18/14 A299 RMK A01 T01800142  RH  079%=      5-min Rain = 0
KPG1 230816Z 03011KT 18/14 A299 RMK A01 T01790142  RH  079%=      5-min Rain = 0
KPG1 230817Z 03012KT 18/14 A299 RMK A01 T01800142  RH  079%=      5-min Rain = 0
KPG1 230818Z 02012KT 18/14 A299 RMK A01 T01790142  RH  079%=      5-min Rain = 0
KPG1 230819Z 02012KT 18/14 A299 RMK A01 T01790142  RH  079%=      5-min Rain = 0
KPG1 230820Z 02012KT 18/14 A299 RMK A01 T01790142  RH  079%=      5-min Rain = 0
KPG1 230821Z 02011KT 18/14 A299 RMK A01 T01780142  RH  079%=      5-min Rain = 0
KPG1 230822Z 03011KT 18/14 A299 RMK A01 T01770141  RH  079%=      5-min Rain = 0
KPG1 230823Z 03011KT 18/14 A299 RMK A01 T01770141  RH  079%=      5-min Rain = 0
KPG1 230824Z 03010KT 18/14 A299 RMK A01 T01760140  RH  080%=      5-min Rain = 0
KPG1 230825Z 03010KT 18/14 A299 RMK A01 T01750140  RH  080%=      5-min Rain = 0
KPG1 230826Z 03010KT 17/14 A299 RMK A01 T01740140  RH  080%=      5-min Rain = 0
KPG1 230827Z 03010KT 17/14 A299 RMK A01 T01730140  RH  081%=      5-min Rain = 0
KPG1 230828Z 03009KT 17/14 A299 RMK A01 T01730140  RH  081%=      5-min Rain = 0
KPG1 230829Z 03010KT 17/14 A299 RMK A01 T01720139  RH  081%=      5-min Rain = 0
KPG1 230830Z 03010KT 17/14 A299 RMK A01 T01720140  RH  081%=      5-min Rain = 0
KPG1 230831Z 04010KT 17/14 A299 RMK A01 T01730141  RH  081%=      5-min Rain = 0
KPG1 230832Z 04012KT 17/14 A299 RMK A01 T01730141  RH  081%=      5-min Rain = 0
KPG1 230833Z 05013KT 18/14 A299 RMK A01 T01760143  RH  081%=      5-min Rain = 0
KPG1 230834Z 04012KT 18/14 A299 RMK A01 T01780144  RH  080%=      5-min Rain = 0
KPG1 230835Z 03012KT 18/14 A299 RMK A01 T01790143  RH  079%=      5-min Rain = 0
KPG1 230836Z 02012KT 18/14 A299 RMK A01 T01790142  RH  079%=      5-min Rain = 0
KPG1 230837Z 03011KT 18/14 A299 RMK A01 T01780141  RH  079%=      5-min Rain = 0
KPG1 230838Z 03010KT 18/14 A299 RMK A01 T01770141  RH  079%=      5-min Rain = 0
KPG1 230839Z 03010KT 18/14 A299 RMK A01 T01760141  RH  080%=      5-min Rain = 0
KPG1 230840Z 03010KT 18/14 A299 RMK A01 T01760141  RH  080%=      5-min Rain = 0
KPG1 230841Z 04009KT 18/14 A299 RMK A01 T01750141  RH  080%=      5-min Rain = 0
KPG1 230842Z 03010KT 18/14 A299 RMK A01 T01750141  RH  081%=      5-min Rain = 0
KPG1 230843Z 02010KT 17/14 A299 RMK A01 T01740141  RH  081%=      5-min Rain = 0
KPG1 230844Z 02010KT 17/14 A299 RMK A01 T01740141  RH  081%=      5-min Rain = 0
KPG1 230845Z 03010KT 17/14 A299 RMK A01 T01730140  RH  081%=      5-min Rain = 0
KPG1 230846Z 03010KT 17/14 A299 RMK A01 T01720140  RH  081%=      5-min Rain = 0
KPG1 230847Z 03011KT 17/14 A299 RMK A01 T01710140  RH  082%=      5-min Rain = 0
KPG1 230848Z 04010KT 17/14 A299 RMK A01 T01710140  RH  082%=      5-min Rain = 0
KPG1 230849Z 04010KT 17/14 A299 RMK A01 T01720141  RH  082%=      5-min Rain = 0
KPG1 230850Z 04010KT 17/14 A299 RMK A01 T01730142  RH  082%=      5-min Rain = 0
KPG1 230851Z 04011KT 18/14 A299 RMK A01 T01750142  RH  081%=      5-min Rain = 0
KPG1 230852Z 04011KT 18/14 A299 RMK A01 T01760142  RH  081%=      5-min Rain = 0
KPG1 230853Z 04010KT 18/14 A299 RMK A01 T01760142  RH  080%=      5-min Rain = 0
KPG1 230854Z 03010KT 18/14 A299 RMK A01 T01770142  RH  080%=      5-min Rain = 0
KPG1 230855Z 03010KT 18/14 A299 RMK A01 T01760142  RH  080%=      5-min Rain = 0
KPG1 230856Z 03010KT 18/14 A299 RMK A01 T01750141  RH  080%=      5-min Rain = 0
KPG1 230857Z 03010KT 17/14 A299 RMK A01 T01740141  RH  081%=      5-min Rain = 0
KPG1 230858Z 03009KT 17/14 A299 RMK A01 T01730140  RH  081%=      5-min Rain = 0
KPG1 230859Z 03010KT 17/14 A299 RMK A01 T01720140  RH  081%=      5-min Rain = 0
KPG1 230900Z 03010KT 17/14 A299 RMK A01 T01710139  RH  082%=      5-min Rain = 0
KPG1 230901Z 03010KT 17/14 A299 RMK A01 T01700139  RH  082%=      5-min Rain = 0
KPG1 230902Z 03010KT 17/14 A299 RMK A01 T01700139  RH  082%=      5-min Rain = 0
KPG1 230903Z 03010KT 17/14 A299 RMK A01 T01690139  RH  083%=      5-min Rain = 0
KPG1 230904Z 03010KT 17/14 A299 RMK A01 T01690140  RH  083%=      5-min Rain = 0
KPG1 230905Z 03010KT 17/14 A299 RMK A01 T01690140  RH  083%=      5-min Rain = 0
KPG1 230906Z 03010KT 17/14 A299 RMK A01 T01690140  RH  083%=      5-min Rain = 0
KPG1 230907Z 02010KT 17/14 A299 RMK A01 T01690140  RH  083%=      5-min Rain = 0
KPG1 230908Z 03010KT 17/14 A299 RMK A01 T01690140  RH  083%=      5-min Rain = 0
KPG1 230909Z 03011KT 17/14 A299 RMK A01 T01690140  RH  083%=      5-min Rain = 0
KPG1 230910Z 03012KT 17/14 A299 RMK A01 T01690140  RH  083%=      5-min Rain = 0
KPG1 230911Z 03012KT 17/14 A299 RMK A01 T01700141  RH  083%=      5-min Rain = 0
KPG1 230912Z 04010KT 17/14 A299 RMK A01 T01710141  RH  083%=      5-min Rain = 0
KPG1 230913Z 04011KT 17/14 A299 RMK A01 T01710141  RH  082%=      5-min Rain = 0
KPG1 230914Z 04011KT 17/14 A299 RMK A01 T01720141  RH  082%=      5-min Rain = 0
KPG1 230915Z 03010KT 17/14 A299 RMK A01 T01720141  RH  082%=      5-min Rain = 0
KPG1 230916Z 03011KT 17/14 A299 RMK A01 T01720140  RH  082%=      5-min Rain = 0
KPG1 230917Z 03009KT 17/14 A299 RMK A01 T01710140  RH  082%=      5-min Rain = 0
KPG1 230918Z 02010KT 17/14 A299 RMK A01 T01700139  RH  082%=      5-min Rain = 0
KPG1 230919Z 02012KT 17/14 A299 RMK A01 T01690139  RH  083%=      5-min Rain = 0
KPG1 230920Z 02011KT 17/14 A299 RMK A01 T01690140  RH  083%=      5-min Rain = 0
KPG1 230921Z 02010KT 17/14 A299 RMK A01 T01690141  RH  083%=      5-min Rain = 0
KPG1 230922Z 02012KT 17/14 A299 RMK A01 T01700141  RH  083%=      5-min Rain = 0
KPG1 230923Z 02012KT 17/14 A299 RMK A01 T01710142  RH  083%=      5-min Rain = 0
KPG1 230924Z 02011KT 17/14 A299 RMK A01 T01720142  RH  082%=      5-min Rain = 0
KPG1 230925Z 03010KT 17/14 A299 RMK A01 T01730141  RH  081%=      5-min Rain = 0
KPG1 230926Z 03012KT 17/14 A299 RMK A01 T01720139  RH  081%=      5-min Rain = 0
KPG1 230927Z 03010KT 17/14 A299 RMK A01 T01690138  RH  082%=      5-min Rain = 0
KPG1 230928Z 02012KT 17/14 A299 RMK A01 T01680139  RH  083%=      5-min Rain = 0
KPG1 230929Z 02012KT 17/14 A299 RMK A01 T01680140  RH  083%=      5-min Rain = 0
KPG1 230930Z 01012KT 17/14 A299 RMK A01 T01700142  RH  083%=      5-min Rain = 0
KPG1 230931Z 01013KT 17/14 A2989 RMK A01 T01720142  RH  082%=      5-min Rain = 0
KPG1 230932Z 02012KT 17/14 A2989 RMK A01 T01740142  RH  082%=      5-min Rain = 0
KPG1 230933Z 02011KT 17/14 A2989 RMK A01 T01740142  RH  081%=      5-min Rain = 0
KPG1 230934Z 02010KT 17/14 A2989 RMK A01 T01730141  RH  081%=      5-min Rain = 0
KPG1 230935Z 03010KT 17/14 A299 RMK A01 T01710139  RH  081%=      5-min Rain = 0
KPG1 230936Z 03011KT 17/14 A299 RMK A01 T01690138  RH  082%=      5-min Rain = 0
KPG1 230937Z 02010KT 17/14 A299 RMK A01 T01670138  RH  083%=      5-min Rain = 0
KPG1 230938Z 01010KT 17/14 A2989 RMK A01 T01660139  RH  084%=      5-min Rain = 0
KPG1 230939Z 01013KT 17/14 A2989 RMK A01 T01680141  RH  084%=      5-min Rain = 0
KPG1 230940Z 02012KT 17/14 A2989 RMK A01 T01700142  RH  083%=      5-min Rain = 0
KPG1 230941Z 02012KT 17/14 A2989 RMK A01 T01720141  RH  082%=      5-min Rain = 0
KPG1 230942Z 02011KT 17/14 A2989 RMK A01 T01720141  RH  082%=      5-min Rain = 0
KPG1 230943Z 02009KT 17/14 A2989 RMK A01 T01710139  RH  082%=      5-min Rain = 0
KPG1 230944Z 02009KT 17/14 A2989 RMK A01 T01680138  RH  082%=      5-min Rain = 0
KPG1 230945Z 02010KT 17/14 A2989 RMK A01 T01670139  RH  084%=      5-min Rain = 0
KPG1 230946Z 02010KT 17/14 A2989 RMK A01 T01670140  RH  084%=      5-min Rain = 0
KPG1 230947Z 02010KT 17/14 A2989 RMK A01 T01680141  RH  084%=      5-min Rain = 0
KPG1 230948Z 03010KT 17/14 A2989 RMK A01 T01680139  RH  083%=      5-min Rain = 0
KPG1 230949Z 03011KT 17/14 A2989 RMK A01 T01660138  RH  083%=      5-min Rain = 0
KPG1 230950Z 02011KT 17/14 A2989 RMK A01 T01650138  RH  084%=      5-min Rain = 0
KPG1 230951Z 02010KT 17/14 A299 RMK A01 T01650139  RH  084%=      5-min Rain = 0
KPG1 230952Z 02012KT 17/14 A2989 RMK A01 T01650140  RH  085%=      5-min Rain = 0
KPG1 230953Z 01011KT 17/14 A2989 RMK A01 T01680142  RH  085%=      5-min Rain = 0
KPG1 230954Z 02012KT 17/14 A2989 RMK A01 T01700142  RH  083%=      5-min Rain = 0
KPG1 230955Z 02011KT 17/14 A2989 RMK A01 T01720142  RH  083%=      5-min Rain = 0
KPG1 230956Z 03010KT 17/14 A2989 RMK A01 T01720142  RH  082%=      5-min Rain = 0
KPG1 230957Z 03011KT 17/14 A2989 RMK A01 T01710140  RH  082%=      5-min Rain = 0
KPG1 230958Z 03010KT 17/14 A2989 RMK A01 T01690139  RH  083%=      5-min Rain = 0
KPG1 230959Z 03010KT 17/14 A2989 RMK A01 T01670139  RH  083%=      5-min Rain = 0
KPG1 231000Z 03010KT 17/14 A2989 RMK A01 T01660139  RH  084%=      5-min Rain = 0
KPG1 231001Z 03011KT 17/14 A2989 RMK A01 T01660139  RH  084%=      5-min Rain = 0
KPG1 231002Z 03011KT 17/14 A2989 RMK A01 T01650139  RH  085%=      5-min Rain = 0
KPG1 231003Z 03011KT 17/14 A2989 RMK A01 T01650140  RH  085%=      5-min Rain = 0
KPG1 231004Z 02011KT 17/14 A2989 RMK A01 T01650139  RH  085%=      5-min Rain = 0
KPG1 231005Z 02012KT 17/14 A2989 RMK A01 T01650140  RH  085%=      5-min Rain = 0
KPG1 231006Z 02010KT 17/14 A2989 RMK A01 T01650140  RH  085%=      5-min Rain = 0
KPG1 231007Z 03010KT 17/14 A2989 RMK A01 T01650140  RH  085%=      5-min Rain = 0
KPG1 231008Z 03011KT 17/14 A2989 RMK A01 T01650140  RH  085%=      5-min Rain = 0
KPG1 231009Z 02010KT 17/14 A2989 RMK A01 T01650140  RH  085%=      5-min Rain = 0
KPG1 231010Z 02010KT 17/14 A299 RMK A01 T01650140  RH  085%=      5-min Rain = 0
KPG1 231011Z 02012KT 17/14 A299 RMK A01 T01660141  RH  085%=      5-min Rain = 0
KPG1 231012Z 03010KT 17/14 A299 RMK A01 T01670141  RH  085%=      5-min Rain = 0
KPG1 231013Z 02010KT 17/14 A299 RMK A01 T01670141  RH  084%=      5-min Rain = 0
KPG1 231014Z 03010KT 17/14 A299 RMK A01 T01660141  RH  085%=      5-min Rain = 0
KPG1 231015Z 02009KT 17/14 A299 RMK A01 T01660140  RH  085%=      5-min Rain = 0
KPG1 231016Z 02011KT 17/14 A299 RMK A01 T01660141  RH  085%=      5-min Rain = 0
KPG1 231017Z 02011KT 17/14 A299 RMK A01 T01660142  RH  086%=      5-min Rain = 0
KPG1 231018Z 02010KT 17/14 A299 RMK A01 T01680144  RH  085%=      5-min Rain = 0
KPG1 231019Z 02010KT 17/14 A299 RMK A01 T01700143  RH  084%=      5-min Rain = 0
KPG1 231020Z 02010KT 17/14 A299 RMK A01 T01710143  RH  084%=      5-min Rain = 0
KPG1 231021Z 02010KT 17/14 A299 RMK A01 T01710144  RH  084%=      5-min Rain = 0
KPG1 231022Z 03009KT 17/14 A299 RMK A01 T01710143  RH  083%=      5-min Rain = 0
KPG1 231023Z 02008KT 17/14 A299 RMK A01 T01710141  RH  083%=      5-min Rain = 0
KPG1 231024Z 02008KT 17/14 A299 RMK A01 T01680140  RH  084%=      5-min Rain = 0
KPG1 231025Z 02008KT 17/14 A299 RMK A01 T01670141  RH  085%=      5-min Rain = 0
KPG1 231026Z 02009KT 17/14 A299 RMK A01 T01660141  RH  085%=      5-min Rain = 0
KPG1 231027Z 02009KT 17/14 A299 RMK A01 T01670142  RH  085%=      5-min Rain = 0
KPG1 231028Z 03008KT 17/14 A299 RMK A01 T01680142  RH  085%=      5-min Rain = 0
KPG1 231029Z 03009KT 17/14 A299 RMK A01 T01680141  RH  084%=      5-min Rain = 0
KPG1 231030Z 03009KT 17/14 A2991 RMK A01 T01670141  RH  085%=      5-min Rain = 0
KPG1 231031Z 03009KT 17/14 A2991 RMK A01 T01670141  RH  085%=      5-min Rain = 0
KPG1 231032Z 03009KT 17/14 A2991 RMK A01 T01670141  RH  085%=      5-min Rain = 0
KPG1 231033Z 03010KT 17/14 A2991 RMK A01 T01670142  RH  085%=      5-min Rain = 0
KPG1 231034Z 03009KT 17/14 A2991 RMK A01 T01670142  RH  085%=      5-min Rain = 0
KPG1 231035Z 03009KT 17/14 A2991 RMK A01 T01670142  RH  085%=      5-min Rain = 0
KPG1 231036Z 04010KT 17/14 A2991 RMK A01 T01660142  RH  085%=      5-min Rain = 0
KPG1 231037Z 04009KT 17/14 A2991 RMK A01 T01660142  RH  085%=      5-min Rain = 0
KPG1 231038Z 03009KT 17/14 A2991 RMK A01 T01660142  RH  085%=      5-min Rain = 0
KPG1 231039Z 03009KT 17/14 A2991 RMK A01 T01670143  RH  085%=      5-min Rain = 0
KPG1 231040Z 04009KT 17/14 A2991 RMK A01 T01670142  RH  085%=      5-min Rain = 0
KPG1 231041Z 04009KT 17/14 A2991 RMK A01 T01670142  RH  085%=      5-min Rain = 0
KPG1 231042Z 04008KT 17/14 A2991 RMK A01 T01670142  RH  085%=      5-min Rain = 0
KPG1 231043Z 04008KT 17/14 A2991 RMK A01 T01670142  RH  085%=      5-min Rain = 0
KPG1 231044Z 04010KT 17/14 A2991 RMK A01 T01680142  RH  085%=      5-min Rain = 0
KPG1 231045Z 04009KT 17/14 A2991 RMK A01 T01680142  RH  085%=      5-min Rain = 0
KPG1 231046Z 04008KT 17/14 A2991 RMK A01 T01680142  RH  085%=      5-min Rain = 0
KPG1 231047Z 03007KT 17/14 A2991 RMK A01 T01680142  RH  085%=      5-min Rain = 0
KPG1 231048Z 02008KT 17/14 A2991 RMK A01 T01680142  RH  084%=      5-min Rain = 0
KPG1 231049Z 03009KT 17/14 A2991 RMK A01 T01670142  RH  085%=      5-min Rain = 0
KPG1 231050Z 03009KT 17/14 A2991 RMK A01 T01670141  RH  085%=      5-min Rain = 0
KPG1 231051Z 02009KT 17/14 A2991 RMK A01 T01670142  RH  085%=      5-min Rain = 0
KPG1 231052Z 01009KT 17/14 A2991 RMK A01 T01680142  RH  084%=      5-min Rain = 0
KPG1 231053Z 01008KT 17/14 A2991 RMK A01 T01690141  RH  084%=      5-min Rain = 0
KPG1 231054Z 00009KT 17/14 A2991 RMK A01 T01700142  RH  084%=      5-min Rain = 0
KPG1 231055Z 01010KT 17/14 A2991 RMK A01 T01700142  RH  083%=      5-min Rain = 0
KPG1 231056Z 02009KT 17/14 A2991 RMK A01 T01710142  RH  083%=      5-min Rain = 0
KPG1 231057Z 02008KT 17/14 A2991 RMK A01 T01720142  RH  082%=      5-min Rain = 0
KPG1 231058Z 02010KT 17/14 A2991 RMK A01 T01720142  RH  082%=      5-min Rain = 0
KPG1 231059Z 01009KT 17/14 A2991 RMK A01 T01720142  RH  083%=      5-min Rain = 0
KPG1 231100Z 01010KT 17/14 A2991 RMK A01 T01730142  RH  082%=      5-min Rain = 0
KPG1 231101Z 01010KT 17/14 A2991 RMK A01 T01740142  RH  082%=      5-min Rain = 0
KPG1 231102Z 01009KT 17/14 A2991 RMK A01 T01740142  RH  082%=      5-min Rain = 0
KPG1 231103Z 00010KT 17/14 A2991 RMK A01 T01740143  RH  082%=      5-min Rain = 0
KPG1 231104Z 01010KT 17/14 A2991 RMK A01 T01740143  RH  082%=      5-min Rain = 0
KPG1 231105Z 01008KT 17/14 A2991 RMK A01 T01740143  RH  082%=      5-min Rain = 0
KPG1 231106Z 00009KT 17/14 A2991 RMK A01 T01740142  RH  082%=      5-min Rain = 0
KPG1 231107Z 01009KT 17/14 A2991 RMK A01 T01740142  RH  082%=      5-min Rain = 0
KPG1 231108Z 01010KT 17/14 A2991 RMK A01 T01730142  RH  082%=      5-min Rain = 0
KPG1 231109Z 01010KT 17/14 A2991 RMK A01 T01730142  RH  082%=      5-min Rain = 0
KPG1 231110Z 01009KT 17/14 A2991 RMK A01 T01730142  RH  082%=      5-min Rain = 0
KPG1 231111Z 01009KT 17/14 A2991 RMK A01 T01730142  RH  082%=      5-min Rain = 0
KPG1 231112Z 02009KT 17/14 A2992 RMK A01 T01730142  RH  082%=      5-min Rain = 0
KPG1 231113Z 02008KT 17/14 A2992 RMK A01 T01740142  RH  082%=      5-min Rain = 0
KPG1 231114Z 02007KT 17/14 A2992 RMK A01 T01730142  RH  082%=      5-min Rain = 0
KPG1 231115Z 01009KT 17/14 A2992 RMK A01 T01720142  RH  082%=      5-min Rain = 0
KPG1 231116Z 02008KT 17/14 A2992 RMK A01 T01720142  RH  082%=      5-min Rain = 0
KPG1 231117Z 03008KT 17/14 A2992 RMK A01 T01730142  RH  082%=      5-min Rain = 0
KPG1 231118Z 02007KT 17/14 A2992 RMK A01 T01720142  RH  082%=      5-min Rain = 0
KPG1 231119Z 03008KT 17/14 A2992 RMK A01 T01720142  RH  082%=      5-min Rain = 0
KPG1 231120Z 02008KT 17/14 A2992 RMK A01 T01720142  RH  083%=      5-min Rain = 0
KPG1 231121Z 03010KT 17/14 A2992 RMK A01 T01710142  RH  083%=      5-min Rain = 0
KPG1 231122Z 02010KT 17/14 A2992 RMK A01 T01720142  RH  083%=      5-min Rain = 0
KPG1 231123Z 00009KT 17/14 A2992 RMK A01 T01720142  RH  083%=      5-min Rain = 0
KPG1 231124Z 01009KT 17/14 A2992 RMK A01 T01730143  RH  082%=      5-min Rain = 0
KPG1 231125Z 02007KT 17/14 A2992 RMK A01 T01740143  RH  082%=      5-min Rain = 0
KPG1 231126Z 03008KT 17/14 A2992 RMK A01 T01740143  RH  082%=      5-min Rain = 0
KPG1 231127Z 01007KT 17/14 A2992 RMK A01 T01730142  RH  082%=      5-min Rain = 0
KPG1 231128Z 02007KT 17/14 A2992 RMK A01 T01720142  RH  082%=      5-min Rain = 0
KPG1 231129Z 03009KT 17/14 A2992 RMK A01 T01710141  RH  083%=      5-min Rain = 0
KPG1 231130Z 02008KT 17/14 A2992 RMK A01 T01700141  RH  083%=      5-min Rain = 0
KPG1 231131Z 04009KT 17/14 A2992 RMK A01 T01700141  RH  083%=      5-min Rain = 0
KPG1 231132Z 05012KT 17/14 A2992 RMK A01 T01690142  RH  084%=      5-min Rain = 0
KPG1 231133Z 05010KT 17/14 A2992 RMK A01 T01700142  RH  083%=      5-min Rain = 0
KPG1 231134Z 04010KT 17/14 A2993 RMK A01 T01710142  RH  083%=      5-min Rain = 0
KPG1 231135Z 03009KT 17/14 A2993 RMK A01 T01710142  RH  083%=      5-min Rain = 0
KPG1 231136Z 05011KT 17/14 A2993 RMK A01 T01710142  RH  083%=      5-min Rain = 0
KPG1 231137Z 05011KT 17/14 A2993 RMK A01 T01710142  RH  083%=      5-min Rain = 0
KPG1 231138Z 05012KT 17/14 A2993 RMK A01 T01710142  RH  083%=      5-min Rain = 0
KPG1 231139Z 05012KT 17/14 A2993 RMK A01 T01710142  RH  083%=      5-min Rain = 0
KPG1 231140Z 03013KT 17/14 A2993 RMK A01 T01710142  RH  083%=      5-min Rain = 0
KPG1 231141Z 03011KT 17/14 A2993 RMK A01 T01710142  RH  083%=      5-min Rain = 0
KPG1 231142Z 02012KT 17/14 A2993 RMK A01 T01710143  RH  083%=      5-min Rain = 0
KPG1 231143Z 02013KT 17/14 A2993 RMK A01 T01710143  RH  083%=      5-min Rain = 0
KPG1 231144Z 02012KT 17/14 A2993 RMK A01 T01710142  RH  083%=      5-min Rain = 0
KPG1 231145Z 02010KT 17/14 A2993 RMK A01 T01710142  RH  083%=      5-min Rain = 0
KPG1 231146Z 02009KT 17/14 A2993 RMK A01 T01700142  RH  084%=      5-min Rain = 0
KPG1 231147Z 03010KT 17/14 A2993 RMK A01 T01690141  RH  084%=      5-min Rain = 0
KPG1 231148Z 03010KT 17/14 A2993 RMK A01 T01680141  RH  084%=      5-min Rain = 0
KPG1 231149Z 03008KT 17/14 A2993 RMK A01 T01670141  RH  084%=      5-min Rain = 0
KPG1 231150Z 03009G14KT 17/14 A2993 RMK A01 T01660141  RH  085%=      5-min Rain = 0
KPG1 231151Z 03012KT 17/14 A2993 RMK A01 T01660142  RH  085%=      5-min Rain = 0
KPG1 231152Z 02011KT 17/14 A2993 RMK A01 T01670142  RH  085%=      5-min Rain = 0
KPG1 231153Z 02011KT 17/14 A2993 RMK A01 T01670142  RH  085%=      5-min Rain = 0
KPG1 231154Z 02011KT 17/14 A2993 RMK A01 T01670142  RH  085%=      5-min Rain = 0
KPG1 231155Z 03009KT 17/14 A2993 RMK A01 T01670142  RH  085%=      5-min Rain = 0
KPG1 231156Z 02009KT 17/14 A2993 RMK A01 T01670142  RH  085%=      5-min Rain = 0
KPG1 231157Z 03010KT 17/14 A2993 RMK A01 T01660142  RH  085%=      5-min Rain = 0
KPG1 231158Z 03010KT 17/14 A2993 RMK A01 T01660142  RH  086%=      5-min Rain = 0
KPG1 231159Z 03009KT 17/14 A2993 RMK A01 T01660142  RH  086%=      5-min Rain = 0
KPG1 231200Z 02011KT 17/14 A2993 RMK A01 T01660142  RH  086%=      5-min Rain = 0
KPG1 231201Z 02011KT 17/14 A2993 RMK A01 T01660143  RH  086%=      5-min Rain = 0
KPG1 231202Z 03009KT 17/14 A2993 RMK A01 T01660142  RH  086%=      5-min Rain = 0
KPG1 231203Z 03009KT 17/14 A2993 RMK A01 T01660142  RH  086%=      5-min Rain = 0
KPG1 231204Z 03009KT 17/14 A2993 RMK A01 T01660142  RH  086%=      5-min Rain = 0
KPG1 231205Z 03009KT 17/14 A2993 RMK A01 T01650142  RH  086%=      5-min Rain = 0
KPG1 231206Z 03009KT 17/14 A2994 RMK A01 T01650142  RH  086%=      5-min Rain = 0
KPG1 231207Z 02009KT 16/14 A2994 RMK A01 T01640142  RH  087%=      5-min Rain = 0
KPG1 231208Z 02010KT 16/14 A2994 RMK A01 T01640142  RH  087%=      5-min Rain = 0
KPG1 231209Z 02010KT 16/14 A2994 RMK A01 T01640143  RH  087%=      5-min Rain = 0
KPG1 231210Z 03008KT 16/14 A2994 RMK A01 T01630142  RH  087%=      5-min Rain = 0
KPG1 231211Z 03007KT 16/14 A2994 RMK A01 T01630142  RH  087%=      5-min Rain = 0
KPG1 231212Z 03008KT 16/14 A2994 RMK A01 T01620141  RH  087%=      5-min Rain = 0
KPG1 231213Z 03009KT 16/14 A2994 RMK A01 T01620142  RH  088%=      5-min Rain = 0
KPG1 231214Z 03009KT 16/14 A2994 RMK A01 T01620142  RH  088%=      5-min Rain = 0
KPG1 231215Z 03008KT 16/14 A2994 RMK A01 T01620142  RH  088%=      5-min Rain = 0
KPG1 231216Z 03008KT 16/14 A2994 RMK A01 T01620142  RH  088%=      5-min Rain = 0
KPG1 231217Z 02009KT 16/14 A2994 RMK A01 T01610142  RH  088%=      5-min Rain = 0
KPG1 231218Z 02009KT 16/14 A2994 RMK A01 T01610143  RH  089%=      5-min Rain = 0
KPG1 231219Z 02009KT 16/14 A2994 RMK A01 T01610142  RH  089%=      5-min Rain = 0
KPG1 231220Z 02009KT 16/14 A2995 RMK A01 T01610143  RH  089%=      5-min Rain = 0
KPG1 231221Z 02009KT 16/14 A2995 RMK A01 T01620143  RH  089%=      5-min Rain = 0
KPG1 231222Z 02008KT 16/14 A2995 RMK A01 T01620143  RH  088%=      5-min Rain = 0
KPG1 231223Z 01009KT 16/14 A2995 RMK A01 T01620142  RH  088%=      5-min Rain = 0
KPG1 231224Z 01009KT 16/14 A2995 RMK A01 T01620143  RH  088%=      5-min Rain = 0
KPG1 231225Z 01009KT 16/14 A2995 RMK A01 T01630144  RH  088%=      5-min Rain = 0
KPG1 231226Z 01009KT 16/14 A2995 RMK A01 T01640143  RH  087%=      5-min Rain = 0
KPG1 231227Z 01009KT 17/14 A2995 RMK A01 T01650143  RH  087%=      5-min Rain = 0
KPG1 231228Z 01009KT 17/14 A2995 RMK A01 T01660143  RH  086%=      5-min Rain = 0
KPG1 231229Z 00008KT 17/14 A2995 RMK A01 T01660143  RH  086%=      5-min Rain = 0
KPG1 231230Z 01008KT 17/14 A2995 RMK A01 T01660143  RH  086%=      5-min Rain = 0
KPG1 231231Z 01008KT 17/14 A2995 RMK A01 T01670143  RH  086%=      5-min Rain = 0
KPG1 231232Z 01007KT 17/14 A2995 RMK A01 T01670143  RH  086%=      5-min Rain = 0
KPG1 231233Z 02009KT 17/14 A2995 RMK A01 T01680143  RH  085%=      5-min Rain = 0
KPG1 231234Z 02009KT 17/14 A2995 RMK A01 T01690143  RH  085%=      5-min Rain = 0
KPG1 231235Z 01007KT 17/14 A2995 RMK A01 T01690143  RH  085%=      5-min Rain = 0
KPG1 231236Z 02009KT 17/14 A2996 RMK A01 T01690143  RH  084%=      5-min Rain = 0
KPG1 231237Z 01010KT 17/14 A2996 RMK A01 T01700143  RH  084%=      5-min Rain = 0
KPG1 231238Z 02009KT 17/14 A2996 RMK A01 T01710143  RH  084%=      5-min Rain = 0
KPG1 231239Z 02009KT 17/14 A2996 RMK A01 T01710143  RH  084%=      5-min Rain = 0
KPG1 231240Z 03007KT 17/14 A2996 RMK A01 T01710143  RH  083%=      5-min Rain = 0
KPG1 231241Z 02008KT 17/14 A2996 RMK A01 T01700142  RH  084%=      5-min Rain = 0
KPG1 231242Z 02007KT 17/14 A2996 RMK A01 T01700143  RH  084%=      5-min Rain = 0
KPG1 231243Z 02009KT 17/14 A2996 RMK A01 T01690142  RH  084%=      5-min Rain = 0
KPG1 231244Z 01008KT 17/14 A2996 RMK A01 T01690143  RH  084%=      5-min Rain = 0
KPG1 231245Z 02008KT 17/14 A2996 RMK A01 T01690143  RH  084%=      5-min Rain = 0
KPG1 231246Z 02008KT 17/14 A2996 RMK A01 T01690143  RH  084%=      5-min Rain = 0
KPG1 231247Z 02008KT 17/14 A2996 RMK A01 T01690142  RH  084%=      5-min Rain = 0
KPG1 231248Z 03008KT 17/14 A2996 RMK A01 T01690142  RH  084%=      5-min Rain = 0
KPG1 231249Z 03008KT 17/14 A2996 RMK A01 T01680142  RH  085%=      5-min Rain = 0
KPG1 231250Z 03008KT 17/14 A2996 RMK A01 T01670142  RH  085%=      5-min Rain = 0
KPG1 231251Z 02008KT 17/14 A2996 RMK A01 T01670142  RH  085%=      5-min Rain = 0
KPG1 231252Z 02009KT 17/14 A2996 RMK A01 T01680143  RH  085%=      5-min Rain = 0
KPG1 231253Z 02008KT 17/14 A2996 RMK A01 T01680143  RH  085%=      5-min Rain = 0
KPG1 231254Z 02008KT 17/14 A2996 RMK A01 T01680142  RH  085%=      5-min Rain = 0
KPG1 231255Z 01009KT 17/14 A2996 RMK A01 T01690143  RH  084%=      5-min Rain = 0
KPG1 231256Z 02009KT 17/14 A2996 RMK A01 T01690143  RH  084%=      5-min Rain = 0
KPG1 231257Z 02010KT 17/14 A2996 RMK A01 T01700142  RH  084%=      5-min Rain = 0
KPG1 231258Z 02009KT 17/14 A2996 RMK A01 T01700143  RH  084%=      5-min Rain = 0
KPG1 231259Z 03008KT 17/14 A2997 RMK A01 T01700142  RH  084%=      5-min Rain = 0
KPG1 231300Z 03008KT 17/14 A2997 RMK A01 T01690142  RH  084%=      5-min Rain = 0
KPG1 231301Z 03008KT 17/14 A2997 RMK A01 T01680142  RH  085%=      5-min Rain = 0
KPG1 231302Z 03008KT 17/14 A2997 RMK A01 T01670142  RH  085%=      5-min Rain = 0
KPG1 231303Z 02008KT 17/14 A2997 RMK A01 T01670142  RH  085%=      5-min Rain = 0
KPG1 231304Z 02008KT 17/14 A2997 RMK A01 T01660142  RH  085%=      5-min Rain = 0
KPG1 231305Z 03008KT 17/14 A2997 RMK A01 T01660142  RH  085%=      5-min Rain = 0
KPG1 231306Z 03008KT 17/14 A2997 RMK A01 T01670142  RH  085%=      5-min Rain = 0
KPG1 231307Z 03008KT 17/14 A2997 RMK A01 T01670142  RH  085%=      5-min Rain = 0
KPG1 231308Z 03008KT 17/14 A2997 RMK A01 T01670142  RH  085%=      5-min Rain = 0
KPG1 231309Z 03009KT 17/14 A2997 RMK A01 T01670142  RH  085%=      5-min Rain = 0
KPG1 231310Z 03008KT 17/14 A2997 RMK A01 T01670142  RH  085%=      5-min Rain = 0
KPG1 231311Z 02009KT 17/14 A2997 RMK A01 T01670142  RH  085%=      5-min Rain = 0
KPG1 231312Z 01009KT 17/14 A2997 RMK A01 T01670142  RH  085%=      5-min Rain = 0
KPG1 231313Z 02009KT 17/14 A2997 RMK A01 T01680143  RH  085%=      5-min Rain = 0
KPG1 231314Z 03009KT 17/14 A2997 RMK A01 T01690143  RH  084%=      5-min Rain = 0
KPG1 231315Z 02009KT 17/14 A2997 RMK A01 T01690142  RH  084%=      5-min Rain = 0
KPG1 231316Z 02009KT 17/14 A2997 RMK A01 T01690143  RH  084%=      5-min Rain = 0
KPG1 231317Z 02008KT 17/14 A2997 RMK A01 T01700143  RH  084%=      5-min Rain = 0
KPG1 231318Z 01010KT 17/14 A2997 RMK A01 T01700143  RH  084%=      5-min Rain = 0
KPG1 231319Z 02011KT 17/14 A2997 RMK A01 T01720144  RH  084%=      5-min Rain = 0
KPG1 231320Z 02009KT 17/14 A2997 RMK A01 T01730144  RH  083%=      5-min Rain = 0
KPG1 231321Z 02009KT 17/14 A2997 RMK A01 T01740143  RH  082%=      5-min Rain = 0
KPG1 231322Z 02009KT 17/14 A2997 RMK A01 T01740143  RH  082%=      5-min Rain = 0
KPG1 231323Z 02009KT 18/14 A2997 RMK A01 T01750143  RH  082%=      5-min Rain = 0
KPG1 231324Z 02008KT 18/14 A2997 RMK A01 T01750143  RH  082%=      5-min Rain = 0
KPG1 231325Z 02009KT 18/14 A2997 RMK A01 T01750143  RH  082%=      5-min Rain = 0
KPG1 231326Z 02008KT 18/14 A2997 RMK A01 T01750144  RH  082%=      5-min Rain = 0
KPG1 231327Z 02009KT 18/14 A2997 RMK A01 T01750144  RH  082%=      5-min Rain = 0
KPG1 231328Z 01010KT 18/14 A2997 RMK A01 T01750144  RH  082%=      5-min Rain = 0
KPG1 231329Z 02009KT 18/14 A2997 RMK A01 T01760144  RH  081%=      5-min Rain = 0
KPG1 231330Z 02010KT 18/14 A2997 RMK A01 T01770144  RH  081%=      5-min Rain = 0
KPG1 231331Z 02008KT 18/14 A2997 RMK A01 T01770144  RH  081%=      5-min Rain = 0
KPG1 231332Z 02009KT 18/14 A2997 RMK A01 T01780144  RH  081%=      5-min Rain = 0
KPG1 231333Z 02009KT 18/14 A2997 RMK A01 T01780144  RH  081%=      5-min Rain = 0
KPG1 231334Z 02007KT 18/14 A2997 RMK A01 T01780144  RH  081%=      5-min Rain = 0
KPG1 231335Z 03007KT 18/14 A2997 RMK A01 T01780144  RH  081%=      5-min Rain = 0
KPG1 231336Z 03008KT 18/14 A2997 RMK A01 T01780144  RH  081%=      5-min Rain = 0
KPG1 231337Z 03008KT 18/14 A2997 RMK A01 T01780144  RH  081%=      5-min Rain = 0
KPG1 231338Z 03008KT 18/14 A2997 RMK A01 T01780144  RH  081%=      5-min Rain = 0
KPG1 231339Z 03009KT 18/14 A2997 RMK A01 T01780144  RH  081%=      5-min Rain = 0
KPG1 231340Z 03008KT 18/14 A2997 RMK A01 T01780144  RH  081%=      5-min Rain = 0
KPG1 231341Z 03008KT 18/14 A2997 RMK A01 T01780144  RH  081%=      5-min Rain = 0
KPG1 231342Z 03008KT 18/14 A2998 RMK A01 T01780144  RH  081%=      5-min Rain = 0
KPG1 231343Z 04007KT 18/14 A2998 RMK A01 T01780144  RH  081%=      5-min Rain = 0
KPG1 231344Z 04007KT 18/14 A2998 RMK A01 T01780144  RH  081%=      5-min Rain = 0
KPG1 231345Z 04008KT 18/14 A2998 RMK A01 T01780144  RH  081%=      5-min Rain = 0
KPG1 231346Z 04008KT 18/14 A2998 RMK A01 T01780144  RH  081%=      5-min Rain = 0
KPG1 231347Z 04009KT 18/15 A2998 RMK A01 T01790145  RH  080%=      5-min Rain = 0
KPG1 231348Z 04009KT 18/15 A2998 RMK A01 T01790145  RH  080%=      5-min Rain = 0
KPG1 231349Z 04009KT 18/15 A2998 RMK A01 T01800145  RH  080%=      5-min Rain = 0
KPG1 231350Z 04009KT 18/15 A2998 RMK A01 T01800145  RH  080%=      5-min Rain = 0
KPG1 231351Z 04008KT 18/14 A2998 RMK A01 T01800144  RH  079%=      5-min Rain = 0
KPG1 231352Z 04008KT 18/15 A2998 RMK A01 T01810145  RH  079%=      5-min Rain = 0
KPG1 231353Z 03008KT 18/15 A2998 RMK A01 T01810145  RH  079%=      5-min Rain = 0
KPG1 231354Z 03008KT 18/15 A2998 RMK A01 T01810145  RH  079%=      5-min Rain = 0
KPG1 231355Z 04009KT 18/15 A2998 RMK A01 T01820145  RH  079%=      5-min Rain = 0
KPG1 231356Z 04008KT 18/15 A2998 RMK A01 T01820145  RH  079%=      5-min Rain = 0
KPG1 231357Z 04007KT 18/15 A2998 RMK A01 T01820145  RH  079%=      5-min Rain = 0
KPG1 231358Z 03007KT 18/15 A2998 RMK A01 T01820145  RH  079%=      5-min Rain = 0
KPG1 231359Z 04008KT 18/15 A2998 RMK A01 T01820145  RH  079%=      5-min Rain = 0
KPG1 231400Z 04007KT 18/15 A2998 RMK A01 T01820145  RH  079%=      5-min Rain = 0
KPG1 231401Z 04006KT 18/15 A2998 RMK A01 T01820145  RH  079%=      5-min Rain = 0
KPG1 231402Z 04009KT 18/15 A2998 RMK A01 T01820145  RH  079%=      5-min Rain = 0
KPG1 231403Z 05008KT 18/15 A2998 RMK A01 T01820145  RH  079%=      5-min Rain = 0
KPG1 231404Z 05007KT 18/15 A2998 RMK A01 T01820145  RH  079%=      5-min Rain = 0
KPG1 231405Z 04008KT 18/15 A2998 RMK A01 T01820146  RH  079%=      5-min Rain = 0
KPG1 231406Z 04010KT 18/15 A2998 RMK A01 T01830146  RH  079%=      5-min Rain = 0
KPG1 231407Z 04009KT 18/15 A2998 RMK A01 T01830145  RH  079%=      5-min Rain = 0
KPG1 231408Z 04009KT 18/15 A2998 RMK A01 T01830145  RH  079%=      5-min Rain = 0
KPG1 231409Z 04009KT 18/15 A2998 RMK A01 T01830146  RH  079%=      5-min Rain = 0
KPG1 231410Z 03009KT 18/15 A2998 RMK A01 T01830146  RH  079%=      5-min Rain = 0
KPG1 231411Z 03009KT 18/15 A2998 RMK A01 T01830146  RH  079%=      5-min Rain = 0
KPG1 231412Z 04009KT 18/15 A2998 RMK A01 T01840146  RH  079%=      5-min Rain = 0
KPG1 231413Z 04009KT 19/15 A2998 RMK A01 T01850147  RH  078%=      5-min Rain = 0
KPG1 231414Z 04009KT 19/15 A2998 RMK A01 T01860147  RH  078%=      5-min Rain = 0
KPG1 231415Z 04009KT 19/15 A2998 RMK A01 T01850147  RH  078%=      5-min Rain = 0
KPG1 231416Z 03009KT 19/15 A2998 RMK A01 T01850147  RH  078%=      5-min Rain = 0
KPG1 231417Z 03010KT 19/15 A2998 RMK A01 T01860147  RH  078%=      5-min Rain = 0
KPG1 231418Z 03009KT 19/15 A2998 RMK A01 T01860147  RH  078%=      5-min Rain = 0
KPG1 231419Z 03009KT 19/15 A2998 RMK A01 T01860147  RH  078%=      5-min Rain = 0
KPG1 231420Z 03009KT 19/15 A2998 RMK A01 T01860147  RH  078%=      5-min Rain = 0
KPG1 231421Z 04008KT 19/15 A2998 RMK A01 T01860148  RH  078%=      5-min Rain = 0
KPG1 231422Z 03007KT 19/15 A2998 RMK A01 T01870147  RH  078%=      5-min Rain = 0
KPG1 231423Z 02010KT 19/15 A2998 RMK A01 T01870147  RH  078%=      5-min Rain = 0
KPG1 231424Z 03010KT 19/15 A2998 RMK A01 T01880147  RH  077%=      5-min Rain = 0
KPG1 231425Z 03010KT 19/15 A2998 RMK A01 T01880148  RH  078%=      5-min Rain = 0
KPG1 231426Z 03008KT 19/15 A2998 RMK A01 T01880148  RH  078%=      5-min Rain = 0
KPG1 231427Z 04008KT 19/15 A2998 RMK A01 T01900149  RH  077%=      5-min Rain = 0
KPG1 231428Z 03010KT 19/15 A2998 RMK A01 T01920150  RH  077%=      5-min Rain = 0
KPG1 231429Z 04010KT 19/15 A2998 RMK A01 T01920149  RH  076%=      5-min Rain = 0
KPG1 231430Z 04007KT 19/15 A2998 RMK A01 T01910148  RH  076%=      5-min Rain = 0
KPG1 231431Z 04008KT 19/15 A2998 RMK A01 T01930149  RH  076%=      5-min Rain = 0
KPG1 231432Z 04008KT 19/15 A2998 RMK A01 T01930148  RH  075%=      5-min Rain = 0
KPG1 231433Z 04009KT 19/15 A2998 RMK A01 T01920147  RH  076%=      5-min Rain = 0
KPG1 231434Z 05009KT 19/15 A2998 RMK A01 T01910148  RH  076%=      5-min Rain = 0
KPG1 231435Z 05006KT 19/15 A2998 RMK A01 T01930148  RH  075%=      5-min Rain = 0
KPG1 231436Z 01008KT 19/15 A2998 RMK A01 T01930149  RH  075%=      5-min Rain = 0
KPG1 231437Z 02009KT 19/15 A2998 RMK A01 T01940148  RH  075%=      5-min Rain = 0
KPG1 231438Z 04008KT 19/15 A2998 RMK A01 T01930148  RH  076%=      5-min Rain = 0
KPG1 231439Z 04007KT 19/15 A2998 RMK A01 T01930149  RH  076%=      5-min Rain = 0
KPG1 231440Z 03007KT 19/15 A2998 RMK A01 T01930148  RH  075%=      5-min Rain = 0
KPG1 231441Z 03008KT 19/15 A2998 RMK A01 T01930148  RH  075%=      5-min Rain = 0
KPG1 231442Z 03008KT 19/15 A2998 RMK A01 T01940148  RH  075%=      5-min Rain = 0
KPG1 231443Z 02009KT 19/15 A2998 RMK A01 T01930147  RH  075%=      5-min Rain = 0
KPG1 231444Z 03008KT 19/15 A2998 RMK A01 T01920148  RH  075%=      5-min Rain = 0
KPG1 231445Z 04008KT 19/15 A2998 RMK A01 T01920148  RH  075%=      5-min Rain = 0
KPG1 231446Z 04010KT 19/15 A2998 RMK A01 T01930149  RH  075%=      5-min Rain = 0
KPG1 231447Z 04009KT 19/15 A2998 RMK A01 T01930148  RH  075%=      5-min Rain = 0
KPG1 231448Z 05007KT 19/15 A2998 RMK A01 T01930148  RH  075%=      5-min Rain = 0
KPG1 231449Z 05009KT 19/15 A2998 RMK A01 T01930149  RH  075%=      5-min Rain = 0
KPG1 231450Z 02009KT 20/15 A2998 RMK A01 T01950149  RH  075%=      5-min Rain = 0
KPG1 231451Z 03008KT 20/15 A2998 RMK A01 T01980150  RH  074%=      5-min Rain = 0
KPG1 231452Z 03012KT 20/15 A2998 RMK A01 T02010150  RH  072%=      5-min Rain = 0
KPG1 231453Z 04012KT 20/15 A2998 RMK A01 T01990147  RH  072%=      5-min Rain = 0
KPG1 231454Z 05011KT 20/15 A2998 RMK A01 T01970147  RH  073%=      5-min Rain = 0
KPG1 231455Z 04011KT 20/15 A2998 RMK A01 T01970148  RH  073%=      5-min Rain = 0
KPG1 231456Z 04010KT 20/15 A2998 RMK A01 T01960147  RH  073%=      5-min Rain = 0
KPG1 231457Z 05010KT 20/15 A2998 RMK A01 T01960147  RH  073%=      5-min Rain = 0
KPG1 231458Z 04007KT 20/15 A2998 RMK A01 T01960147  RH  073%=      5-min Rain = 0
KPG1 231459Z 04009KT 20/15 A2998 RMK A01 T01970148  RH  073%=      5-min Rain = 0
KPG1 231500Z 04010KT 20/15 A2998 RMK A01 T01990148  RH  072%=      5-min Rain = 0
KPG1 231501Z 05009KT 20/15 A2998 RMK A01 T01990148  RH  072%=      5-min Rain = 0
KPG1 231502Z 05006G11KT 20/15 A2998 RMK A01 T01990148  RH  073%=      5-min Rain = 0
KPG1 231503Z 04009KT 20/15 A2998 RMK A01 T02000148  RH  072%=      5-min Rain = 0
KPG1 231504Z 05008KT 20/15 A2998 RMK A01 T02000147  RH  072%=      5-min Rain = 0
KPG1 231505Z 05009KT 20/15 A2998 RMK A01 T02020149  RH  071%=      5-min Rain = 0
KPG1 231506Z 04006KT 21/15 A2998 RMK A01 T02050149  RH  070%=      5-min Rain = 0
KPG1 231507Z 06008KT 21/15 A2998 RMK A01 T02080149  RH  069%=      5-min Rain = 0
KPG1 231508Z 07010KT 21/15 A2998 RMK A01 T02100149  RH  068%=      5-min Rain = 0
KPG1 231509Z 08010KT 21/15 A2998 RMK A01 T02110148  RH  068%=      5-min Rain = 0
KPG1 231510Z 07009KT 21/15 A2998 RMK A01 T02110148  RH  067%=      5-min Rain = 0
KPG1 231511Z 04007KT 21/15 A2998 RMK A01 T02120149  RH  067%=      5-min Rain = 0
KPG1 231512Z 05008KT 21/15 A2998 RMK A01 T02130148  RH  066%=      5-min Rain = 0
KPG1 231513Z 05009KT 21/15 A2998 RMK A01 T02100146  RH  067%=      5-min Rain = 0
KPG1 231514Z 03008KT 21/15 A2998 RMK A01 T02080147  RH  068%=      5-min Rain = 0
KPG1 231515Z 03009KT 21/15 A2998 RMK A01 T02090147  RH  068%=      5-min Rain = 0
KPG1 231516Z 04008KT 21/15 A2998 RMK A01 T02100148  RH  067%=      5-min Rain = 0
KPG1 231517Z 06007KT 21/15 A2998 RMK A01 T02090147  RH  068%=      5-min Rain = 0
KPG1 231518Z 04006KT 21/15 A2998 RMK A01 T02080148  RH  069%=      5-min Rain = 0
KPG1 231519Z 07007KT 21/15 A2998 RMK A01 T02090149  RH  068%=      5-min Rain = 0
KPG1 231520Z 05006KT 21/15 A2998 RMK A01 T02090149  RH  068%=      5-min Rain = 0
KPG1 231521Z 03005KT 21/15 A2998 RMK A01 T02080149  RH  069%=      5-min Rain = 0
KPG1 231522Z 03007KT 21/15 A2998 RMK A01 T02070148  RH  069%=      5-min Rain = 0
KPG1 231523Z 03009KT 21/15 A2998 RMK A01 T02060148  RH  069%=      5-min Rain = 0
KPG1 231524Z 04009KT 20/15 A2998 RMK A01 T02040147  RH  070%=      5-min Rain = 0
KPG1 231525Z 03007KT 20/15 A2998 RMK A01 T02030147  RH  070%=      5-min Rain = 0
KPG1 231526Z 05006KT 20/15 A2998 RMK A01 T02020147  RH  071%=      5-min Rain = 0
KPG1 231527Z 03005KT 20/15 A2998 RMK A01 T02030148  RH  070%=      5-min Rain = 0
KPG1 231528Z 03006KT 20/15 A2998 RMK A01 T02030148  RH  070%=      5-min Rain = 0
KPG1 231529Z 03007KT 20/15 A2998 RMK A01 T02030148  RH  070%=      5-min Rain = 0
KPG1 231530Z 04006KT 20/15 A2998 RMK A01 T02030147  RH  070%=      5-min Rain = 0
KPG1 231531Z 04006KT 20/15 A2998 RMK A01 T02030147  RH  070%=      5-min Rain = 0
KPG1 231532Z 04007KT 20/15 A2998 RMK A01 T02040147  RH  070%=      5-min Rain = 0
KPG1 231533Z 04006KT 20/15 A2998 RMK A01 T02040147  RH  070%=      5-min Rain = 0
KPG1 231534Z 02007KT 20/15 A2998 RMK A01 T02040148  RH  070%=      5-min Rain = 0
KPG1 231535Z 02007KT 20/15 A2998 RMK A01 T02040148  RH  070%=      5-min Rain = 0
KPG1 231536Z 01006KT 20/15 A2998 RMK A01 T02040147  RH  070%=      5-min Rain = 0
KPG1 231537Z 02006KT 21/15 A2998 RMK A01 T02050148  RH  070%=      5-min Rain = 0
KPG1 231538Z 03007KT 21/15 A2998 RMK A01 T02050147  RH  069%=      5-min Rain = 0
KPG1 231539Z 02007KT 21/15 A2998 RMK A01 T02050147  RH  070%=      5-min Rain = 0
KPG1 231540Z 02009KT 21/15 A2998 RMK A01 T02050147  RH  069%=      5-min Rain = 0
KPG1 231541Z 02009KT 21/15 A2998 RMK A01 T02050147  RH  069%=      5-min Rain = 0
KPG1 231542Z 02007KT 21/15 A2998 RMK A01 T02050146  RH  069%=      5-min Rain = 0
KPG1 231543Z 02005KT 21/15 A2998 RMK A01 T02060147  RH  069%=      5-min Rain = 0
KPG1 231544Z 03006KT 21/15 A2998 RMK A01 T02110149  RH  068%=      5-min Rain = 0
KPG1 231545Z 05004KT 21/15 A2998 RMK A01 T02130148  RH  066%=      5-min Rain = 0
KPG1 231546Z 04005KT 22/15 A2998 RMK A01 T02150149  RH  066%=      5-min Rain = 0
KPG1 231547Z 03003KT 22/15 A2998 RMK A01 T02160147  RH  064%=      5-min Rain = 0
KPG1 231548Z 02005KT 22/15 A2998 RMK A01 T02170147  RH  065%=      5-min Rain = 0
KPG1 231549Z 02007KT 22/15 A2998 RMK A01 T02180148  RH  064%=      5-min Rain = 0
KPG1 231550Z 02009KT 22/15 A2998 RMK A01 T02190147  RH  064%=      5-min Rain = 0
KPG1 231551Z 02006KT 22/15 A2998 RMK A01 T02170146  RH  064%=      5-min Rain = 0
KPG1 231552Z 01007KT 22/15 A2998 RMK A01 T02180147  RH  064%=      5-min Rain = 0
KPG1 231553Z 03006KT 22/15 A2998 RMK A01 T02210147  RH  063%=      5-min Rain = 0
KPG1 231554Z 02007KT 22/15 A2998 RMK A01 T02220146  RH  062%=      5-min Rain = 0
KPG1 231555Z 01005KT 22/15 A2998 RMK A01 T02200145  RH  062%=      5-min Rain = 0
KPG1 231556Z 01006KT 22/15 A2998 RMK A01 T02170145  RH  064%=      5-min Rain = 0
KPG1 231557Z 01007KT 22/15 A2998 RMK A01 T02150146  RH  065%=      5-min Rain = 0
KPG1 231558Z 02007KT 22/15 A2998 RMK A01 T02150146  RH  065%=      5-min Rain = 0
KPG1 231559Z 02008KT 21/15 A2998 RMK A01 T02140146  RH  065%=      5-min Rain = 0
KPG1 231600Z 02006KT 21/15 A2998 RMK A01 T02130146  RH  065%=      5-min Rain = 0
KPG1 231601Z 02007KT 21/15 A2998 RMK A01 T02130146  RH  066%=      5-min Rain = 0
KPG1 231602Z 01008KT 22/15 A2998 RMK A01 T02150146  RH  065%=      5-min Rain = 0
KPG1 231603Z 02012KT 22/15 A2998 RMK A01 T02180147  RH  064%=      5-min Rain = 0
KPG1 231604Z 03011KT 22/15 A2998 RMK A01 T02190146  RH  063%=      5-min Rain = 0
KPG1 231605Z 03010KT 22/15 A2998 RMK A01 T02200146  RH  063%=      5-min Rain = 0
KPG1 231606Z 04007KT 22/15 A2998 RMK A01 T02190146  RH  063%=      5-min Rain = 0
KPG1 231607Z 02008KT 22/15 A2998 RMK A01 T02200147  RH  063%=      5-min Rain = 0
KPG1 231608Z 02007KT 22/15 A2998 RMK A01 T02200146  RH  063%=      5-min Rain = 0
KPG1 231609Z 04010KT 22/15 A2998 RMK A01 T02210146  RH  063%=      5-min Rain = 0
KPG1 231610Z 04007KT 22/15 A2998 RMK A01 T02220145  RH  062%=      5-min Rain = 0
KPG1 231611Z 02007KT 22/15 A2998 RMK A01 T02210145  RH  062%=      5-min Rain = 0
KPG1 231612Z 03009KT 22/15 A2998 RMK A01 T02200145  RH  063%=      5-min Rain = 0
KPG1 231613Z 03007KT 22/15 A2998 RMK A01 T02210145  RH  062%=      5-min Rain = 0
KPG1 231614Z 04005KT 22/15 A2998 RMK A01 T02210145  RH  062%=      5-min Rain = 0
KPG1 231615Z 04007KT 22/15 A2998 RMK A01 T02210145  RH  062%=      5-min Rain = 0
KPG1 231616Z 05009KT 22/15 A2998 RMK A01 T02210145  RH  062%=      5-min Rain = 0
KPG1 231617Z 02009KT 22/15 A2998 RMK A01 T02220146  RH  062%=      5-min Rain = 0
KPG1 231618Z 02009KT 22/15 A2998 RMK A01 T02230146  RH  062%=      5-min Rain = 0
KPG1 231619Z 02009KT 22/15 A2998 RMK A01 T02210145  RH  062%=      5-min Rain = 0
KPG1 231620Z 02010KT 22/15 A2998 RMK A01 T02200145  RH  062%=      5-min Rain = 0
KPG1 231621Z 03008KT 22/14 A2998 RMK A01 T02200144  RH  062%=      5-min Rain = 0
KPG1 231622Z 02009KT 22/14 A2998 RMK A01 T02190143  RH  062%=      5-min Rain = 0
KPG1 231623Z 03009KT 22/14 A2998 RMK A01 T02180143  RH  062%=      5-min Rain = 0
KPG1 231624Z 02007KT 22/14 A2998 RMK A01 T02180143  RH  062%=      5-min Rain = 0
KPG1 231625Z 02006KT 22/14 A2998 RMK A01 T02180143  RH  062%=      5-min Rain = 0
KPG1 231626Z 01008KT 22/14 A2998 RMK A01 T02200144  RH  062%=      5-min Rain = 0
KPG1 231627Z 02008KT 22/14 A2998 RMK A01 T02230144  RH  061%=      5-min Rain = 0
KPG1 231628Z 01009KT 23/14 A2997 RMK A01 T02250144  RH  060%=      5-min Rain = 0
KPG1 231629Z 02009KT 23/14 A2997 RMK A01 T02270143  RH  059%=      5-min Rain = 0
KPG1 231630Z 02010KT 23/14 A2997 RMK A01 T02270144  RH  059%=      5-min Rain = 0
KPG1 231631Z 01009KT 23/14 A2997 RMK A01 T02270143  RH  059%=      5-min Rain = 0
KPG1 231632Z 03008KT 23/14 A2997 RMK A01 T02270143  RH  059%=      5-min Rain = 0
KPG1 231633Z 05007KT 23/14 A2998 RMK A01 T02290144  RH  059%=      5-min Rain = 0
KPG1 231634Z 03010KT 23/14 A2998 RMK A01 T02300144  RH  058%=      5-min Rain = 0
KPG1 231635Z 05009KT 23/14 A2998 RMK A01 T02290144  RH  059%=      5-min Rain = 0
KPG1 231636Z 05007G12KT 23/14 A2998 RMK A01 T02290144  RH  059%=      5-min Rain = 0
KPG1 231637Z 03011KT 23/14 A2998 RMK A01 T02310144  RH  058%=      5-min Rain = 0
KPG1 231638Z 03011KT 23/14 A2998 RMK A01 T02300143  RH  058%=      5-min Rain = 0
KPG1 231639Z 04011KT 23/14 A2998 RMK A01 T02320142  RH  057%=      5-min Rain = 0
KPG1 231640Z 03010KT 23/14 A2998 RMK A01 T02300141  RH  057%=      5-min Rain = 0
KPG1 231641Z 04007KT 23/14 A2998 RMK A01 T02290143  RH  058%=      5-min Rain = 0
KPG1 231642Z 04009KT 23/14 A2998 RMK A01 T02310143  RH  058%=      5-min Rain = 0
KPG1 231643Z 04009KT 23/14 A2998 RMK A01 T02310143  RH  057%=      5-min Rain = 0
KPG1 231644Z 04009KT 23/14 A2998 RMK A01 T02310141  RH  057%=      5-min Rain = 0
KPG1 231645Z 04007KT 23/14 A2998 RMK A01 T02300140  RH  057%=      5-min Rain = 0
KPG1 231646Z 04008KT 23/14 A2998 RMK A01 T02310139  RH  056%=      5-min Rain = 0
KPG1 231647Z 04009KT 23/14 A2998 RMK A01 T02330137  RH  055%=      5-min Rain = 0
KPG1 231648Z 05006KT 23/14 A2998 RMK A01 T02340138  RH  055%=      5-min Rain = 0
KPG1 231649Z 07005KT 24/14 A2997 RMK A01 T02350138  RH  054%=      5-min Rain = 0
KPG1 231650Z 06003KT 24/14 A2997 RMK A01 T02350138  RH  054%=      5-min Rain = 0
KPG1 231651Z 02006KT 24/13 A2997 RMK A01 T02360134  RH  052%=      5-min Rain = 0
KPG1 231652Z 03007KT 24/13 A2997 RMK A01 T02370133  RH  052%=      5-min Rain = 0
KPG1 231653Z 03009KT 24/14 A2997 RMK A01 T02370136  RH  053%=      5-min Rain = 0
KPG1 231654Z 03008KT 24/14 A2997 RMK A01 T02390138  RH  053%=      5-min Rain = 0
KPG1 231655Z 04010KT 25/14 A2997 RMK A01 T02460140  RH  052%=      5-min Rain = 0
KPG1 231656Z 02009KT 25/14 A2997 RMK A01 T02470137  RH  050%=      5-min Rain = 0
KPG1 231657Z 04007KT 24/13 A2997 RMK A01 T02420134  RH  051%=      5-min Rain = 0
KPG1 231658Z 07010KT 24/14 A2997 RMK A01 T02400137  RH  052%=      5-min Rain = 0
KPG1 231659Z 08008KT 24/14 A2997 RMK A01 T02400139  RH  053%=      5-min Rain = 0
KPG1 231700Z 08010KT 24/14 A2997 RMK A01 T02400138  RH  053%=      5-min Rain = 0
KPG1 231701Z 08008KT 24/14 A2997 RMK A01 T02420135  RH  051%=      5-min Rain = 0
KPG1 231702Z 08009KT 24/13 A2997 RMK A01 T02430132  RH  050%=      5-min Rain = 0
KPG1 231703Z 09006KT 24/13 A2997 RMK A01 T02420129  RH  049%=      5-min Rain = 0
KPG1 231704Z 09010KT 24/13 A2997 RMK A01 T02410131  RH  050%=      5-min Rain = 0
KPG1 231705Z 06009KT 24/13 A2997 RMK A01 T02420132  RH  050%=      5-min Rain = 0
KPG1 231706Z 04009G14KT 24/14 A2997 RMK A01 T02440135  RH  051%=      5-min Rain = 0
KPG1 231707Z 03012KT 24/13 A2997 RMK A01 T02440133  RH  050%=      5-min Rain = 0
KPG1 231708Z 02009KT 24/13 A2997 RMK A01 T02440132  RH  050%=      5-min Rain = 0
KPG1 231709Z 04006KT 24/13 A2997 RMK A01 T02420133  RH  050%=      5-min Rain = 0
KPG1 231710Z 08007KT 25/14 A2997 RMK A01 T02470138  RH  051%=      5-min Rain = 0
KPG1 231711Z 08009KT 25/14 A2997 RMK A01 T02500139  RH  050%=      5-min Rain = 0
KPG1 231712Z 07006KT 25/14 A2997 RMK A01 T02460135  RH  050%=      5-min Rain = 0
KPG1 231713Z 08007KT 25/14 A2996 RMK A01 T02460137  RH  051%=      5-min Rain = 0
KPG1 231714Z 06012KT 25/14 A2996 RMK A01 T02510135  RH  049%=      5-min Rain = 0
KPG1 231715Z 05010KT 25/13 A2996 RMK A01 T02510133  RH  048%=      5-min Rain = 0
KPG1 231716Z 05009KT 25/13 A2996 RMK A01 T02520131  RH  047%=      5-min Rain = 0
KPG1 231717Z 04007KT 25/13 A2996 RMK A01 T02480128  RH  047%=      5-min Rain = 0
KPG1 231718Z 04006G11KT 24/13 A2996 RMK A01 T02440126  RH  048%=      5-min Rain = 0
KPG1 231719Z 02008KT 24/13 A2996 RMK A01 T02430127  RH  048%=      5-min Rain = 0
KPG1 231720Z 04008KT 25/13 A2996 RMK A01 T02460125  RH  047%=      5-min Rain = 0
KPG1 231721Z 05005KT 25/13 A2996 RMK A01 T02450125  RH  047%=      5-min Rain = 0
KPG1 231722Z 06006KT 25/13 A2996 RMK A01 T02470130  RH  048%=      5-min Rain = 0
KPG1 231723Z 03007KT 25/13 A2996 RMK A01 T02510130  RH  047%=      5-min Rain = 0
KPG1 231724Z 02011KT 25/13 A2996 RMK A01 T02530134  RH  048%=      5-min Rain = 0
KPG1 231725Z 03013KT 25/13 A2996 RMK A01 T02520134  RH  048%=      5-min Rain = 0
KPG1 231726Z 03010KT 25/13 A2996 RMK A01 T02500131  RH  048%=      5-min Rain = 0
KPG1 231727Z 04006KT 25/13 A2996 RMK A01 T02450131  RH  049%=      5-min Rain = 0
KPG1 231728Z 02008KT 25/13 A2996 RMK A01 T02460133  RH  050%=      5-min Rain = 0
KPG1 231729Z 02007KT 25/13 A2996 RMK A01 T02490132  RH  048%=      5-min Rain = 0
KPG1 231730Z 01005KT 25/13 A2996 RMK A01 T02500133  RH  048%=      5-min Rain = 0
KPG1 231731Z 04003KT 25/13 A2996 RMK A01 T02470130  RH  048%=      5-min Rain = 0
KPG1 231732Z 04003KT 25/13 A2996 RMK A01 T02450131  RH  049%=      5-min Rain = 0
KPG1 231733Z 04005KT 25/13 A2996 RMK A01 T02450132  RH  049%=      5-min Rain = 0
KPG1 231734Z 03008KT 25/13 A2996 RMK A01 T02460133  RH  049%=      5-min Rain = 0
KPG1 231735Z 04007KT 24/13 A2996 RMK A01 T02430133  RH  050%=      5-min Rain = 0
KPG1 231736Z 04010KT 25/13 A2996 RMK A01 T02450133  RH  050%=      5-min Rain = 0
KPG1 231737Z 04007KT 25/13 A2996 RMK A01 T02460131  RH  049%=      5-min Rain = 0
KPG1 231738Z 01011KT 25/13 A2996 RMK A01 T02480133  RH  049%=      5-min Rain = 0
KPG1 231739Z 01013KT 25/13 A2995 RMK A01 T02500132  RH  048%=      5-min Rain = 0
KPG1 231740Z 01011KT 25/13 A2995 RMK A01 T02490131  RH  048%=      5-min Rain = 0
KPG1 231741Z 01012KT 25/13 A2995 RMK A01 T02490130  RH  048%=      5-min Rain = 0
KPG1 231742Z 02008KT 25/13 A2995 RMK A01 T02480130  RH  048%=      5-min Rain = 0
KPG1 231743Z 02008KT 25/13 A2995 RMK A01 T02470130  RH  048%=      5-min Rain = 0
KPG1 231744Z 00008KT 25/13 A2995 RMK A01 T02470128  RH  048%=      5-min Rain = 0
KPG1 231745Z 00007KT 25/13 A2995 RMK A01 T02470127  RH  047%=      5-min Rain = 0
KPG1 231746Z 35005KT 25/13 A2995 RMK A01 T02480126  RH  047%=      5-min Rain = 0
KPG1 231747Z 03007KT 25/13 A2995 RMK A01 T02480126  RH  047%=      5-min Rain = 0
KPG1 231748Z 36007KT 25/13 A2995 RMK A01 T02490125  RH  046%=      5-min Rain = 0
KPG1 231749Z 36004KT 25/12 A2995 RMK A01 T02480124  RH  046%=      5-min Rain = 0
KPG1 231750Z 01004KT 25/13 A2995 RMK A01 T02500125  RH  046%=      5-min Rain = 0
KPG1 231751Z 01008KT 25/12 A2995 RMK A01 T02530124  RH  045%=      5-min Rain = 0
KPG1 231752Z 01005KT 25/12 A2995 RMK A01 T02540120  RH  043%=      5-min Rain = 0
KPG1 231753Z 03002KT 25/12 A2995 RMK A01 T02530120  RH  043%=      5-min Rain = 0
KPG1 231754Z 08005KT 26/12 A2995 RMK A01 T02560123  RH  044%=      5-min Rain = 0
KPG1 231755Z 07007KT 26/13 A2995 RMK A01 T02610128  RH  044%=      5-min Rain = 0
KPG1 231756Z 03007KT 26/13 A2995 RMK A01 T02640128  RH  043%=      5-min Rain = 0
KPG1 231757Z 01004KT 26/13 A2995 RMK A01 T02620129  RH  044%=      5-min Rain = 0
KPG1 231758Z 04002KT 26/13 A2995 RMK A01 T02590129  RH  044%=      5-min Rain = 0
KPG1 231759Z 07007KT 26/13 A2994 RMK A01 T02580129  RH  045%=      5-min Rain = 0
KPG1 231800Z 04008KT 26/13 A2994 RMK A01 T02560129  RH  045%=      5-min Rain = 0
KPG1 231801Z 03007KT 26/13 A2994 RMK A01 T02570131  RH  046%=      5-min Rain = 0
KPG1 231802Z 06008KT 26/13 A2994 RMK A01 T02600133  RH  045%=      5-min Rain = 0
KPG1 231803Z 06008KT 26/13 A2994 RMK A01 T02610131  RH  045%=      5-min Rain = 0
KPG1 231804Z 03011KT 26/13 A2994 RMK A01 T02600130  RH  045%=      5-min Rain = 0
KPG1 231805Z 04009KT 26/13 A2994 RMK A01 T02610129  RH  044%=      5-min Rain = 0
KPG1 231806Z 04005KT 26/13 A2994 RMK A01 T02580128  RH  044%=      5-min Rain = 0
KPG1 231807Z 08005KT 26/13 A2994 RMK A01 T02560130  RH  045%=      5-min Rain = 0
KPG1 231808Z 09008KT 26/13 A2994 RMK A01 T02610134  RH  046%=      5-min Rain = 0
KPG1 231809Z 07009KT 26/14 A2994 RMK A01 T02640135  RH  045%=      5-min Rain = 0
KPG1 231810Z 07011KT 26/13 A2994 RMK A01 T02640133  RH  044%=      5-min Rain = 0
KPG1 231811Z 07007KT 26/13 A2994 RMK A01 T02580131  RH  045%=      5-min Rain = 0
KPG1 231812Z 06008KT 25/13 A2994 RMK A01 T02530131  RH  047%=      5-min Rain = 0
KPG1 231813Z 07010KT 25/13 A2994 RMK A01 T02510130  RH  047%=      5-min Rain = 0
KPG1 231814Z 08008KT 25/13 A2994 RMK A01 T02490131  RH  048%=      5-min Rain = 0
KPG1 231815Z 06006KT 25/13 A2994 RMK A01 T02490131  RH  048%=      5-min Rain = 0
KPG1 231816Z 04008KT 25/13 A2994 RMK A01 T02510128  RH  047%=      5-min Rain = 0
KPG1 231817Z 04010KT 25/13 A2994 RMK A01 T02520127  RH  046%=      5-min Rain = 0
KPG1 231818Z 01010KT 26/12 A2993 RMK A01 T02560124  RH  044%=      5-min Rain = 0
KPG1 231819Z 01006KT 26/12 A2993 RMK A01 T02590121  RH  042%=      5-min Rain = 0
KPG1 231820Z 03008KT 26/12 A2993 RMK A01 T02600122  RH  042%=      5-min Rain = 0
KPG1 231821Z 03006KT 26/12 A2993 RMK A01 T02620123  RH  042%=      5-min Rain = 0
KPG1 231822Z 06009KT 26/12 A2993 RMK A01 T02630124  RH  042%=      5-min Rain = 0
KPG1 231823Z 10008KT 26/13 A2993 RMK A01 T02630129  RH  043%=      5-min Rain = 0
KPG1 231824Z 12009KT 26/13 A2993 RMK A01 T02640129  RH  043%=      5-min Rain = 0
KPG1 231825Z 11009KT 27/13 A2993 RMK A01 T02650129  RH  043%=      5-min Rain = 0
KPG1 231826Z 09010G17KT 26/13 A2993 RMK A01 T02640128  RH  043%=      5-min Rain = 0
KPG1 231827Z 08012KT 26/13 A2993 RMK A01 T02630127  RH  043%=      5-min Rain = 0
KPG1 231828Z 07015KT 26/13 A2993 RMK A01 T02640129  RH  043%=      5-min Rain = 0
KPG1 231829Z 04014KT 26/13 A2993 RMK A01 T02640128  RH  043%=      5-min Rain = 0
KPG1 231830Z 02012KT 27/13 A2993 RMK A01 T02650127  RH  043%=      5-min Rain = 0
KPG1 231831Z 02011KT 26/13 A2993 RMK A01 T02640127  RH  043%=      5-min Rain = 0
KPG1 231832Z 03011KT 26/13 A2993 RMK A01 T02630128  RH  043%=      5-min Rain = 0
KPG1 231833Z 03013KT 26/13 A2993 RMK A01 T02630128  RH  043%=      5-min Rain = 0
KPG1 231834Z 06012KT 26/13 A2993 RMK A01 T02630127  RH  043%=      5-min Rain = 0
KPG1 231835Z 08011KT 26/13 A2993 RMK A01 T02600128  RH  044%=      5-min Rain = 0
KPG1 231836Z 05007KT 26/13 A2993 RMK A01 T02600129  RH  044%=      5-min Rain = 0
KPG1 231837Z 10008KT 27/13 A2993 RMK A01 T02650130  RH  043%=      5-min Rain = 0
KPG1 231838Z 06005KT 27/13 A2992 RMK A01 T02650128  RH  043%=      5-min Rain = 0
KPG1 231839Z 05009KT 27/13 A2992 RMK A01 T02650128  RH  043%=      5-min Rain = 0
KPG1 231840Z 04010KT 27/13 A2992 RMK A01 T02680126  RH  041%=      5-min Rain = 0
KPG1 231841Z 05012G17KT 27/12 A2992 RMK A01 T02690123  RH  040%=      5-min Rain = 0
KPG1 231842Z 04012KT 27/12 A2992 RMK A01 T02690122  RH  040%=      5-min Rain = 0
KPG1 231843Z 03011KT 27/12 A2992 RMK A01 T02710122  RH  040%=      5-min Rain = 0
KPG1 231844Z 02010KT 27/12 A2992 RMK A01 T02710121  RH  039%=      5-min Rain = 0
KPG1 231845Z 04009KT 27/12 A2992 RMK A01 T02690121  RH  040%=      5-min Rain = 0
KPG1 231846Z 05009KT 27/12 A2992 RMK A01 T02710124  RH  040%=      5-min Rain = 0
KPG1 231847Z 06008G15KT 28/13 A2992 RMK A01 T02750128  RH  040%=      5-min Rain = 0
KPG1 231848Z 03009KT 27/13 A2992 RMK A01 T02740127  RH  040%=      5-min Rain = 0
KPG1 231849Z 03011KT 27/13 A2992 RMK A01 T02690126  RH  041%=      5-min Rain = 0
KPG1 231850Z 01008KT 27/13 A2991 RMK A01 T02670125  RH  041%=      5-min Rain = 0
KPG1 231851Z 06013KT 27/13 A2991 RMK A01 T02650125  RH  042%=      5-min Rain = 0
KPG1 231852Z 07014KT 27/13 A2992 RMK A01 T02680126  RH  041%=      5-min Rain = 0
KPG1 231853Z 08012KT 27/13 A2992 RMK A01 T02740128  RH  041%=      5-min Rain = 0
KPG1 231854Z 09010KT 28/13 A2991 RMK A01 T02750125  RH  039%=      5-min Rain = 0
KPG1 231855Z 09011KT 27/13 A2991 RMK A01 T02740125  RH  040%=      5-min Rain = 0
KPG1 231856Z 06012KT 27/12 A2992 RMK A01 T02730124  RH  040%=      5-min Rain = 0
KPG1 231857Z 05011KT 27/12 A2992 RMK A01 T02680121  RH  040%=      5-min Rain = 0
KPG1 231858Z 04006KT 26/12 A2991 RMK A01 T02620122  RH  042%=      5-min Rain = 0
KPG1 231859Z 02006KT 26/12 A2991 RMK A01 T02610124  RH  042%=      5-min Rain = 0
KPG1 231900Z 03007KT 26/12 A2991 RMK A01 T02640123  RH  042%=      5-min Rain = 0
KPG1 231901Z 06012KT 27/12 A2991 RMK A01 T02670123  RH  041%=      5-min Rain = 0
KPG1 231902Z 08011KT 27/12 A2991 RMK A01 T02690122  RH  040%=      5-min Rain = 0
KPG1 231903Z 08012KT 27/12 A2991 RMK A01 T02700121  RH  040%=      5-min Rain = 0
KPG1 231904Z 05007KT 27/12 A2991 RMK A01 T02720122  RH  039%=      5-min Rain = 0
KPG1 231905Z 07010KT 28/12 A2991 RMK A01 T02750122  RH  039%=      5-min Rain = 0
KPG1 231906Z 06014KT 27/12 A2991 RMK A01 T02730120  RH  038%=      5-min Rain = 0
KPG1 231907Z 06014KT 27/12 A2991 RMK A01 T02720119  RH  039%=      5-min Rain = 0
KPG1 231908Z 07014KT 27/12 A2991 RMK A01 T02710116  RH  038%=      5-min Rain = 0
KPG1 231909Z 07010KT 27/11 A2991 RMK A01 T02660114  RH  039%=      5-min Rain = 0
KPG1 231910Z 08010KT 26/12 A2991 RMK A01 T02640116  RH  040%=      5-min Rain = 0
KPG1 231911Z 07010KT 27/12 A2991 RMK A01 T02660119  RH  040%=      5-min Rain = 0
KPG1 231912Z 02008KT 27/12 A2991 RMK A01 T02680116  RH  039%=      5-min Rain = 0
KPG1 231913Z 06008G17KT 27/12 A2991 RMK A01 T02680118  RH  039%=      5-min Rain = 0
KPG1 231914Z 07013KT 27/11 A299 RMK A01 T02730114  RH  037%=      5-min Rain = 0
KPG1 231915Z 04011KT 27/11 A299 RMK A01 T02720114  RH  037%=      5-min Rain = 0
KPG1 231916Z 04010KT 27/12 A299 RMK A01 T02720116  RH  038%=      5-min Rain = 0
KPG1 231917Z 04008KT 27/12 A299 RMK A01 T02740118  RH  038%=      5-min Rain = 0
KPG1 231918Z 07010KT 28/12 A299 RMK A01 T02770118  RH  037%=      5-min Rain = 0
KPG1 231919Z 06011KT 28/12 A299 RMK A01 T02800116  RH  036%=      5-min Rain = 0
KPG1 231920Z 07008KT 28/11 A299 RMK A01 T02790112  RH  035%=      5-min Rain = 0
KPG1 231921Z 09008KT 27/11 A299 RMK A01 T02740107  RH  035%=      5-min Rain = 0
KPG1 231922Z 07002G7KT 27/11 A299 RMK A01 T02710107  RH  036%=      5-min Rain = 0
KPG1 231923Z 06009KT 27/11 A299 RMK A01 T02700113  RH  038%=      5-min Rain = 0
KPG1 231924Z 06009KT 27/12 A299 RMK A01 T02730119  RH  039%=      5-min Rain = 0
KPG1 231925Z 09011G18KT 27/12 A299 RMK A01 T02730119  RH  038%=      5-min Rain = 0
KPG1 231926Z 12011G16KT 27/12 A299 RMK A01 T02730119  RH  038%=      5-min Rain = 0
KPG1 231927Z 09013KT 27/12 A299 RMK A01 T02740120  RH  038%=      5-min Rain = 0
KPG1 231928Z 07015KT 28/12 A2989 RMK A01 T02760120  RH  038%=      5-min Rain = 0
KPG1 231929Z 05009G17KT 28/12 A299 RMK A01 T02760119  RH  038%=      5-min Rain = 0
KPG1 231930Z 07013G19KT 27/12 A299 RMK A01 T02730118  RH  038%=      5-min Rain = 0
KPG1 231931Z 08013KT 27/12 A299 RMK A01 T02740117  RH  038%=      5-min Rain = 0
KPG1 231932Z 09009KT 27/12 A299 RMK A01 T02700115  RH  038%=      5-min Rain = 0
KPG1 231933Z 07011KT 27/12 A299 RMK A01 T02730117  RH  038%=      5-min Rain = 0
KPG1 231934Z 08011KT 27/11 A299 RMK A01 T02730112  RH  037%=      5-min Rain = 0
KPG1 231935Z 07009G14KT 27/11 A299 RMK A01 T02710109  RH  036%=      5-min Rain = 0
KPG1 231936Z 08005G13KT 27/11 A2989 RMK A01 T02690107  RH  036%=      5-min Rain = 0
KPG1 231937Z 05011KT 27/11 A2989 RMK A01 T02720110  RH  036%=      5-min Rain = 0
KPG1 231938Z 05009KT 28/11 A2989 RMK A01 T02750107  RH  035%=      5-min Rain = 0
KPG1 231939Z 07007KT 28/10 A2989 RMK A01 T02760103  RH  034%=      5-min Rain = 0
KPG1 231940Z 06006KT 28/10 A2989 RMK A01 T02750102  RH  034%=      5-min Rain = 0
KPG1 231941Z 03006KT 27/10 A2989 RMK A01 T02740103  RH  034%=      5-min Rain = 0
KPG1 231942Z 04006KT 27/10 A2989 RMK A01 T02740102  RH  034%=      5-min Rain = 0
KPG1 231943Z 06008G15KT 28/10 A2989 RMK A01 T02760103  RH  034%=      5-min Rain = 0
KPG1 231944Z 04012G17KT 28/11 A2989 RMK A01 T02780106  RH  034%=      5-min Rain = 0
KPG1 231945Z 03010G15KT 28/10 A2989 RMK A01 T02760104  RH  034%=      5-min Rain = 0
KPG1 231946Z 07009KT 27/11 A2989 RMK A01 T02740107  RH  035%=      5-min Rain = 0
KPG1 231947Z 07006KT 28/10 A2989 RMK A01 T02770104  RH  034%=      5-min Rain = 0
KPG1 231948Z 02007KT 28/11 A2989 RMK A01 T02770106  RH  034%=      5-min Rain = 0
KPG1 231949Z 06008G13KT 28/10 A2989 RMK A01 T02790104  RH  034%=      5-min Rain = 0
KPG1 231950Z 07010KT 28/10 A2989 RMK A01 T02820104  RH  033%=      5-min Rain = 0
KPG1 231951Z 06011KT 29/10 A2989 RMK A01 T02850102  RH  032%=      5-min Rain = 0
KPG1 231952Z 08007KT 28/10 A2989 RMK A01 T02840101  RH  032%=      5-min Rain = 0
KPG1 231953Z 11002KT 28/10 A2988 RMK A01 T02790100  RH  033%=      5-min Rain = 0
KPG1 231954Z 07008KT 28/10 A2988 RMK A01 T02760102  RH  034%=      5-min Rain = 0
KPG1 231955Z 07008KT 28/10 A2988 RMK A01 T02780104  RH  034%=      5-min Rain = 0
KPG1 231956Z 06007KT 28/11 A2988 RMK A01 T02790105  RH  034%=      5-min Rain = 0
KPG1 231957Z 04009KT 28/10 A2988 RMK A01 T02830103  RH  033%=      5-min Rain = 0
KPG1 231958Z 05008KT 29/10 A2988 RMK A01 T02870102  RH  032%=      5-min Rain = 0
KPG1 231959Z 03007KT 29/10 A2988 RMK A01 T02910102  RH  031%=      5-min Rain = 0
KPG1 232000Z 01008KT 29/10 A2988 RMK A01 T02930099  RH  030%=      5-min Rain = 0
KPG1 232001Z 01012KT 29/10 A2988 RMK A01 T02900097  RH  030%=      5-min Rain = 0
KPG1 232002Z 02007KT 28/09 A2988 RMK A01 T02830093  RH  030%=      5-min Rain = 0
KPG1 232003Z 03013G18KT 28/10 A2988 RMK A01 T02810096  RH  032%=      5-min Rain = 0
KPG1 232004Z 05012G18KT 28/10 A2988 RMK A01 T02840100  RH  032%=      5-min Rain = 0
KPG1 232005Z 06013KT 29/10 A2988 RMK A01 T02850100  RH  032%=      5-min Rain = 0
KPG1 232006Z 07010KT 28/10 A2988 RMK A01 T02810099  RH  032%=      5-min Rain = 0
KPG1 232007Z 06009KT 28/10 A2988 RMK A01 T02760097  RH  032%=      5-min Rain = 0
KPG1 232008Z 05007KT 27/10 A2988 RMK A01 T02740097  RH  033%=      5-min Rain = 0
KPG1 232009Z 07008KT 27/10 A2987 RMK A01 T02740096  RH  033%=      5-min Rain = 0
KPG1 232010Z 07009KT 27/10 A2987 RMK A01 T02740095  RH  032%=      5-min Rain = 0
KPG1 232011Z 06013KT 28/10 A2987 RMK A01 T02770096  RH  032%=      5-min Rain = 0
KPG1 232012Z 05011KT 28/10 A2987 RMK A01 T02800095  RH  031%=      5-min Rain = 0
KPG1 232013Z 06011KT 28/10 A2987 RMK A01 T02810096  RH  031%=      5-min Rain = 0
KPG1 232014Z 08015KT 28/10 A2987 RMK A01 T02820096  RH  031%=      5-min Rain = 0
KPG1 232015Z 11011KT 28/09 A2987 RMK A01 T02810093  RH  031%=      5-min Rain = 0
KPG1 232016Z 07013KT 28/09 A2987 RMK A01 T02790094  RH  031%=      5-min Rain = 0
KPG1 232017Z 07014KT 28/10 A2987 RMK A01 T02830096  RH  031%=      5-min Rain = 0
KPG1 232018Z 08010KT 29/10 A2987 RMK A01 T02850095  RH  030%=      5-min Rain = 0
KPG1 232019Z 09014KT 29/09 A2987 RMK A01 T02850093  RH  030%=      5-min Rain = 0
KPG1 232020Z 08009G15KT 28/09 A2987 RMK A01 T02830093  RH  031%=      5-min Rain = 0
KPG1 232021Z 06015KT 28/09 A2987 RMK A01 T02830093  RH  030%=      5-min Rain = 0
KPG1 232022Z 07013G18KT 28/09 A2987 RMK A01 T02830090  RH  030%=      5-min Rain = 0
KPG1 232023Z 10009KT 28/09 A2987 RMK A01 T02790088  RH  030%=      5-min Rain = 0
KPG1 232024Z 12011KT 28/09 A2987 RMK A01 T02780089  RH  030%=      5-min Rain = 0
KPG1 232025Z 12009KT 28/09 A2986 RMK A01 T02790088  RH  030%=      5-min Rain = 0
KPG1 232026Z 11005KT 28/09 A2986 RMK A01 T02780089  RH  031%=      5-min Rain = 0
KPG1 232027Z 02010G15KT 28/09 A2986 RMK A01 T02800087  RH  030%=      5-min Rain = 0
KPG1 232028Z 02009KT 28/09 A2986 RMK A01 T02830089  RH  029%=      5-min Rain = 0
KPG1 232029Z 02010G15KT 29/09 A2986 RMK A01 T02880090  RH  029%=      5-min Rain = 0
KPG1 232030Z 06014G19KT 29/10 A2986 RMK A01 T02900095  RH  030%=      5-min Rain = 0
KPG1 232031Z 06015KT 29/09 A2986 RMK A01 T02900092  RH  029%=      5-min Rain = 0
KPG1 232032Z 06015KT 29/09 A2986 RMK A01 T02880093  RH  030%=      5-min Rain = 0
KPG1 232033Z 05010KT 29/10 A2986 RMK A01 T02860096  RH  031%=      5-min Rain = 0
KPG1 232034Z 03010G17KT 29/10 A2986 RMK A01 T02870097  RH  030%=      5-min Rain = 0
KPG1 232035Z 03013KT 29/10 A2986 RMK A01 T02900095  RH  030%=      5-min Rain = 0
KPG1 232036Z 03015G22KT 29/10 A2986 RMK A01 T02910095  RH  029%=      5-min Rain = 0
KPG1 232037Z 03017G22KT 29/09 A2985 RMK A01 T02890092  RH  029%=      5-min Rain = 0
KPG1 232038Z 02015KT 29/09 A2985 RMK A01 T02860092  RH  030%=      5-min Rain = 0
KPG1 232039Z 02014G21KT 29/09 A2985 RMK A01 T02860094  RH  030%=      5-min Rain = 0
KPG1 232040Z 04013G20KT 28/09 A2986 RMK A01 T02840093  RH  030%=      5-min Rain = 0
KPG1 232041Z 03012KT 28/09 A2985 RMK A01 T02830092  RH  030%=      5-min Rain = 0
KPG1 232042Z 03016KT 28/09 A2985 RMK A01 T02840091  RH  030%=      5-min Rain = 0
KPG1 232043Z 04013KT 29/09 A2985 RMK A01 T02860091  RH  029%=      5-min Rain = 0
KPG1 232044Z 06012G17KT 29/10 A2985 RMK A01 T02890097  RH  030%=      5-min Rain = 0
KPG1 232045Z 05010KT 29/10 A2985 RMK A01 T02920098  RH  030%=      5-min Rain = 0
KPG1 232046Z 09008KT 29/10 A2985 RMK A01 T02900095  RH  030%=      5-min Rain = 0
KPG1 232047Z 08008KT 29/10 A2985 RMK A01 T02890095  RH  030%=      5-min Rain = 0
KPG1 232048Z 07017G23KT 29/10 A2985 RMK A01 T02890096  RH  030%=      5-min Rain = 0
KPG1 232049Z 07013KT 29/10 A2985 RMK A01 T02860097  RH  031%=      5-min Rain = 0
KPG1 232050Z 10010KT 28/10 A2985 RMK A01 T02820097  RH  032%=      5-min Rain = 0
KPG1 232051Z 09012G18KT 28/10 A2985 RMK A01 T02830097  RH  031%=      5-min Rain = 0
KPG1 232052Z 08011KT 29/10 A2985 RMK A01 T02860096  RH  031%=      5-min Rain = 0
KPG1 232053Z 06014KT 29/10 A2985 RMK A01 T02900098  RH  030%=      5-min Rain = 0
KPG1 232054Z 06012KT 29/10 A2985 RMK A01 T02900098  RH  030%=      5-min Rain = 0
KPG1 232055Z 05013KT 29/10 A2985 RMK A01 T02870098  RH  031%=      5-min Rain = 0
KPG1 232056Z 05012KT 28/10 A2985 RMK A01 T02840096  RH  031%=      5-min Rain = 0
KPG1 232057Z 03008KT 28/09 A2985 RMK A01 T02820093  RH  031%=      5-min Rain = 0
KPG1 232058Z 05011KT 28/09 A2985 RMK A01 T02820091  RH  030%=      5-min Rain = 0
KPG1 232059Z 06013KT 28/09 A2985 RMK A01 T02830091  RH  030%=      5-min Rain = 0
KPG1 232100Z 07012KT 29/09 A2985 RMK A01 T02850093  RH  030%=      5-min Rain = 0
KPG1 232101Z 06008KT 29/09 A2985 RMK A01 T02850093  RH  030%=      5-min Rain = 0
KPG1 232102Z 05012KT 29/10 A2985 RMK A01 T02850096  RH  031%=      5-min Rain = 0
KPG1 232103Z 07014KT 29/10 A2985 RMK A01 T02870099  RH  031%=      5-min Rain = 0
KPG1 232104Z 09016KT 29/10 A2985 RMK A01 T02870100  RH  031%=      5-min Rain = 0
KPG1 232105Z 11010G16KT 29/10 A2985 RMK A01 T02850099  RH  031%=      5-min Rain = 0
KPG1 232106Z 13007KT 29/10 A2984 RMK A01 T02850099  RH  031%=      5-min Rain = 0
KPG1 232107Z 12006KT 29/10 A2984 RMK A01 T02850099  RH  031%=      5-min Rain = 0
KPG1 232108Z 08010G15KT 28/10 A2984 RMK A01 T02840098  RH  031%=      5-min Rain = 0
KPG1 232109Z 08010KT 28/10 A2984 RMK A01 T02830097  RH  031%=      5-min Rain = 0
KPG1 232110Z 06011KT 28/10 A2984 RMK A01 T02820099  RH  032%=      5-min Rain = 0
KPG1 232111Z 07014KT 29/10 A2984 RMK A01 T02870100  RH  031%=      5-min Rain = 0
KPG1 232112Z 07014KT 29/10 A2984 RMK A01 T02870098  RH  031%=      5-min Rain = 0
KPG1 232113Z 07012KT 29/10 A2984 RMK A01 T02870099  RH  031%=      5-min Rain = 0
KPG1 232114Z 06014KT 29/10 A2984 RMK A01 T02880102  RH  031%=      5-min Rain = 0
KPG1 232115Z 07017G23KT 29/10 A2984 RMK A01 T02870102  RH  031%=      5-min Rain = 0
KPG1 232116Z 06013KT 29/10 A2984 RMK A01 T02860101  RH  032%=      5-min Rain = 0
KPG1 232117Z 05009KT 29/10 A2984 RMK A01 T02880101  RH  031%=      5-min Rain = 0
KPG1 232118Z 03012KT 29/10 A2984 RMK A01 T02870100  RH  031%=      5-min Rain = 0
KPG1 232119Z 05012KT 29/10 A2984 RMK A01 T02860099  RH  031%=      5-min Rain = 0
KPG1 232120Z 05012KT 29/10 A2984 RMK A01 T02850102  RH  032%=      5-min Rain = 0
KPG1 232121Z 08013KT 29/11 A2984 RMK A01 T02850105  RH  033%=      5-min Rain = 0
KPG1 232122Z 07013G19KT 29/10 A2984 RMK A01 T02850104  RH  032%=      5-min Rain = 0
KPG1 232123Z 06014KT 29/10 A2984 RMK A01 T02850102  RH  032%=      5-min Rain = 0
KPG1 232124Z 05013G19KT 29/10 A2984 RMK A01 T02850103  RH  032%=      5-min Rain = 0
KPG1 232125Z 06014G19KT 29/10 A2984 RMK A01 T02870103  RH  032%=      5-min Rain = 0
KPG1 232126Z 06013KT 29/10 A2984 RMK A01 T02880103  RH  032%=      5-min Rain = 0
KPG1 232127Z 08010KT 29/10 A2984 RMK A01 T02910103  RH  031%=      5-min Rain = 0
KPG1 232128Z 08012KT 29/10 A2984 RMK A01 T02920103  RH  031%=      5-min Rain = 0
KPG1 232129Z 08011KT 29/10 A2984 RMK A01 T02930101  RH  030%=      5-min Rain = 0
KPG1 232130Z 06010KT 29/10 A2984 RMK A01 T02880100  RH  031%=      5-min Rain = 0
KPG1 232131Z 06010KT 29/10 A2984 RMK A01 T02870100  RH  031%=      5-min Rain = 0
KPG1 232132Z 05009KT 28/10 A2984 RMK A01 T02840098  RH  031%=      5-min Rain = 0
KPG1 232133Z 06013G19KT 28/10 A2984 RMK A01 T02820098  RH  032%=      5-min Rain = 0
KPG1 232134Z 07013G18KT 28/10 A2984 RMK A01 T02820099  RH  032%=      5-min Rain = 0
KPG1 232135Z 07013KT 29/10 A2984 RMK A01 T02860099  RH  031%=      5-min Rain = 0
KPG1 232136Z 06014KT 29/10 A2984 RMK A01 T02870098  RH  031%=      5-min Rain = 0
KPG1 232137Z 06013KT 29/10 A2984 RMK A01 T02850099  RH  031%=      5-min Rain = 0
KPG1 232138Z 06013KT 29/10 A2984 RMK A01 T02870100  RH  031%=      5-min Rain = 0
KPG1 232139Z 04011KT 29/10 A2983 RMK A01 T02870101  RH  031%=      5-min Rain = 0
KPG1 232140Z 04009KT 29/10 A2983 RMK A01 T02870102  RH  032%=      5-min Rain = 0
KPG1 232141Z 04008G13KT 29/10 A2983 RMK A01 T02850102  RH  032%=      5-min Rain = 0
KPG1 232142Z 01009KT 29/10 A2983 RMK A01 T02850102  RH  032%=      5-min Rain = 0
KPG1 232143Z 01007G13KT 29/10 A2983 RMK A01 T02850100  RH  032%=      5-min Rain = 0
KPG1 232144Z 01013G20KT 29/10 A2983 RMK A01 T02880101  RH  031%=      5-min Rain = 0
KPG1 232145Z 03010KT 29/10 A2983 RMK A01 T02890102  RH  031%=      5-min Rain = 0
KPG1 232146Z 07012G17KT 29/10 A2983 RMK A01 T02890104  RH  032%=      5-min Rain = 0
KPG1 232147Z 06014G20KT 29/10 A2983 RMK A01 T02860104  RH  032%=      5-min Rain = 0
KPG1 232148Z 08017KT 29/11 A2983 RMK A01 T02850105  RH  033%=      5-min Rain = 0
KPG1 232149Z 07016KT 29/11 A2983 RMK A01 T02850105  RH  032%=      5-min Rain = 0
KPG1 232150Z 07012G17KT 28/10 A2983 RMK A01 T02820103  RH  033%=      5-min Rain = 0
KPG1 232151Z 06011KT 28/10 A2982 RMK A01 T02780102  RH  033%=      5-min Rain = 0
KPG1 232152Z 07014KT 28/10 A2982 RMK A01 T02780104  RH  034%=      5-min Rain = 0
KPG1 232153Z 07012KT 28/10 A2982 RMK A01 T02800104  RH  033%=      5-min Rain = 0
KPG1 232154Z 10010G16KT 28/11 A2982 RMK A01 T02830105  RH  033%=      5-min Rain = 0
KPG1 232155Z 08011G16KT 29/11 A2983 RMK A01 T02860106  RH  033%=      5-min Rain = 0
KPG1 232156Z 06015KT 29/11 A2982 RMK A01 T02880105  RH  032%=      5-min Rain = 0
KPG1 232157Z 06014G19KT 29/10 A2982 RMK A01 T02850104  RH  032%=      5-min Rain = 0
KPG1 232158Z 06014G20KT 28/11 A2982 RMK A01 T02830105  RH  033%=      5-min Rain = 0
KPG1 232159Z 07010KT 28/10 A2982 RMK A01 T02820104  RH  033%=      5-min Rain = 0
KPG1 232200Z 06011G16KT 28/10 A2982 RMK A01 T02810104  RH  033%=      5-min Rain = 0
KPG1 232201Z 06012G22KT 28/11 A2982 RMK A01 T02810105  RH  033%=      5-min Rain = 0
KPG1 232202Z 06016G21KT 28/11 A2982 RMK A01 T02820108  RH  034%=      5-min Rain = 0
KPG1 232203Z 07017G24KT 28/11 A2982 RMK A01 T02830109  RH  034%=      5-min Rain = 0
KPG1 232204Z 05016KT 28/11 A2982 RMK A01 T02840108  RH  033%=      5-min Rain = 0
KPG1 232205Z 08017G22KT 29/11 A2982 RMK A01 T02860108  RH  033%=      5-min Rain = 0
KPG1 232206Z 05013KT 29/11 A2982 RMK A01 T02850108  RH  033%=      5-min Rain = 0
KPG1 232207Z 06013KT 28/11 A2982 RMK A01 T02830107  RH  033%=      5-min Rain = 0
KPG1 232208Z 07014KT 29/11 A2982 RMK A01 T02850107  RH  033%=      5-min Rain = 0
KPG1 232209Z 07016KT 28/11 A2982 RMK A01 T02840106  RH  033%=      5-min Rain = 0
KPG1 232210Z 06017G22KT 28/11 A2982 RMK A01 T02830109  RH  034%=      5-min Rain = 0
KPG1 232211Z 06019KT 28/11 A2982 RMK A01 T02810111  RH  035%=      5-min Rain = 0
KPG1 232212Z 06017KT 28/11 A2982 RMK A01 T02810111  RH  035%=      5-min Rain = 0
KPG1 232213Z 06016G21KT 28/11 A2982 RMK A01 T02820111  RH  035%=      5-min Rain = 0
KPG1 232214Z 06016KT 28/11 A2982 RMK A01 T02820111  RH  035%=      5-min Rain = 0
KPG1 232215Z 07017G22KT 28/11 A2982 RMK A01 T02790110  RH  035%=      5-min Rain = 0
KPG1 232216Z 06015G20KT 28/11 A2982 RMK A01 T02770110  RH  035%=      5-min Rain = 0
KPG1 232217Z 05012KT 28/11 A2982 RMK A01 T02800110  RH  035%=      5-min Rain = 0
KPG1 232218Z 06014G20KT 28/11 A2982 RMK A01 T02800110  RH  035%=      5-min Rain = 0
KPG1 232219Z 09019KT 28/11 A2982 RMK A01 T02810111  RH  035%=      5-min Rain = 0
KPG1 232220Z 08014KT 28/11 A2982 RMK A01 T02810109  RH  034%=      5-min Rain = 0
KPG1 232221Z 06013KT 28/11 A2982 RMK A01 T02820111  RH  035%=      5-min Rain = 0
KPG1 232222Z 06014KT 29/11 A2982 RMK A01 T02860111  RH  034%=      5-min Rain = 0
KPG1 232223Z 06013G18KT 29/11 A2982 RMK A01 T02870110  RH  033%=      5-min Rain = 0
KPG1 232224Z 07016KT 29/11 A2982 RMK A01 T02870110  RH  033%=      5-min Rain = 0
KPG1 232225Z 07014G19KT 28/11 A2982 RMK A01 T02840109  RH  034%=      5-min Rain = 0
KPG1 232226Z 05021KT 28/11 A2982 RMK A01 T02810111  RH  035%=      5-min Rain = 0
KPG1 232227Z 05016KT 28/11 A2982 RMK A01 T02780110  RH  035%=      5-min Rain = 0
KPG1 232228Z 06018KT 28/11 A2982 RMK A01 T02790110  RH  035%=      5-min Rain = 0
KPG1 232229Z 06014KT 28/11 A2982 RMK A01 T02790111  RH  035%=      5-min Rain = 0
KPG1 232230Z 06015G21KT 28/11 A2982 RMK A01 T02790111  RH  035%=      5-min Rain = 0
KPG1 232231Z 07018KT 28/11 A2982 RMK A01 T02790111  RH  035%=      5-min Rain = 0
KPG1 232232Z 07017G22KT 28/11 A2982 RMK A01 T02790111  RH  035%=      5-min Rain = 0
KPG1 232233Z 05014G19KT 28/11 A2982 RMK A01 T02780112  RH  036%=      5-min Rain = 0
KPG1 232234Z 04013KT 28/11 A2982 RMK A01 T02790112  RH  035%=      5-min Rain = 0
KPG1 232235Z 04012KT 28/11 A2982 RMK A01 T02820112  RH  035%=      5-min Rain = 0
KPG1 232236Z 05021G26KT 29/11 A2982 RMK A01 T02850113  RH  034%=      5-min Rain = 0
KPG1 232237Z 05021KT 28/11 A2982 RMK A01 T02820112  RH  035%=      5-min Rain = 0
KPG1 232238Z 06020KT 28/11 A2982 RMK A01 T02790114  RH  036%=      5-min Rain = 0
KPG1 232239Z 06018KT 28/12 A2982 RMK A01 T02780115  RH  036%=      5-min Rain = 0
KPG1 232240Z 08015G20KT 28/11 A2982 RMK A01 T02780114  RH  036%=      5-min Rain = 0
KPG1 232241Z 06012G17KT 28/11 A2982 RMK A01 T02780113  RH  036%=      5-min Rain = 0
KPG1 232242Z 06016KT 28/11 A2982 RMK A01 T02770113  RH  036%=      5-min Rain = 0
KPG1 232243Z 06015G20KT 28/11 A2982 RMK A01 T02770112  RH  036%=      5-min Rain = 0
KPG1 232244Z 06018G23KT 28/11 A2982 RMK A01 T02760112  RH  036%=      5-min Rain = 0
KPG1 232245Z 06018KT 28/11 A2982 RMK A01 T02770112  RH  036%=      5-min Rain = 0
KPG1 232246Z 06013G19KT 28/11 A2982 RMK A01 T02770110  RH  035%=      5-min Rain = 0
KPG1 232247Z 08006KT 27/11 A2982 RMK A01 T02740111  RH  036%=      5-min Rain = 0
KPG1 232248Z 07013G19KT 28/11 A2982 RMK A01 T02770112  RH  036%=      5-min Rain = 0
KPG1 232249Z 05015G20KT 28/11 A2982 RMK A01 T02790112  RH  035%=      5-min Rain = 0
KPG1 232250Z 06013KT 28/11 A2982 RMK A01 T02780111  RH  035%=      5-min Rain = 0
KPG1 232251Z 08010KT 28/11 A2982 RMK A01 T02780111  RH  035%=      5-min Rain = 0
KPG1 232252Z 07011G16KT 28/11 A2982 RMK A01 T02790111  RH  035%=      5-min Rain = 0
KPG1 232253Z 06016KT 28/11 A2981 RMK A01 T02790111  RH  035%=      5-min Rain = 0
KPG1 232254Z 05021KT 28/11 A2981 RMK A01 T02790111  RH  035%=      5-min Rain = 0
KPG1 232255Z 06020KT 28/11 A2981 RMK A01 T02770109  RH  035%=      5-min Rain = 0
KPG1 232256Z 06016G21KT 28/11 A2982 RMK A01 T02750109  RH  035%=      5-min Rain = 0
KPG1 232257Z 06014KT 27/11 A2981 RMK A01 T02740109  RH  036%=      5-min Rain = 0
KPG1 232258Z 07014KT 27/11 A2981 RMK A01 T02740109  RH  036%=      5-min Rain = 0
KPG1 232259Z 05010KT 27/11 A2981 RMK A01 T02740109  RH  036%=      5-min Rain = 0
KPG1 232300Z 05015G24KT 28/11 A2981 RMK A01 T02760111  RH  036%=      5-min Rain = 0
KPG1 232301Z 07018KT 28/11 A2981 RMK A01 T02780113  RH  036%=      5-min Rain = 0
KPG1 232302Z 06012KT 28/11 A2981 RMK A01 T02790114  RH  036%=      5-min Rain = 0
KPG1 232303Z 08015G20KT 28/11 A2981 RMK A01 T02810114  RH  035%=      5-min Rain = 0
KPG1 232304Z 06011KT 28/11 A2981 RMK A01 T02800112  RH  035%=      5-min Rain = 0
KPG1 232305Z 04011G16KT 28/11 A2981 RMK A01 T02790112  RH  035%=      5-min Rain = 0
KPG1 232306Z 05018KT 28/11 A2981 RMK A01 T02780112  RH  036%=      5-min Rain = 0
KPG1 232307Z 05017KT 28/11 A2981 RMK A01 T02770111  RH  036%=      5-min Rain = 0
KPG1 232308Z 05018KT 27/11 A2981 RMK A01 T02740110  RH  036%=      5-min Rain = 0
KPG1 232309Z 06016KT 27/11 A2981 RMK A01 T02730110  RH  036%=      5-min Rain = 0
KPG1 232310Z 08012G17KT 27/11 A2981 RMK A01 T02740110  RH  036%=      5-min Rain = 0
KPG1 232311Z 06013G19KT 27/11 A2981 RMK A01 T02740109  RH  036%=      5-min Rain = 0
KPG1 232312Z 06013G19KT 28/11 A2981 RMK A01 T02750109  RH  036%=      5-min Rain = 0
KPG1 232313Z 07018KT 28/11 A2981 RMK A01 T02750109  RH  035%=      5-min Rain = 0
KPG1 232314Z 06012G18KT 27/11 A2981 RMK A01 T02720109  RH  036%=      5-min Rain = 0
KPG1 232315Z 06012KT 27/11 A2981 RMK A01 T02710110  RH  037%=      5-min Rain = 0
KPG1 232316Z 06012G19KT 27/11 A2981 RMK A01 T02730111  RH  036%=      5-min Rain = 0
KPG1 232317Z 07017KT 28/11 A2981 RMK A01 T02750109  RH  036%=      5-min Rain = 0
KPG1 232318Z 06012G17KT 27/11 A2981 RMK A01 T02730108  RH  036%=      5-min Rain = 0
KPG1 232319Z 05016G21KT 27/11 A2981 RMK A01 T02720109  RH  036%=      5-min Rain = 0
KPG1 232320Z 06016KT 27/11 A2981 RMK A01 T02730109  RH  036%=      5-min Rain = 0
KPG1 232321Z 06014G19KT 27/11 A2981 RMK A01 T02720109  RH  036%=      5-min Rain = 0
KPG1 232322Z 06014KT 27/11 A2981 RMK A01 T02720109  RH  036%=      5-min Rain = 0
KPG1 232323Z 08013KT 27/11 A2981 RMK A01 T02730110  RH  036%=      5-min Rain = 0
KPG1 232324Z 09011KT 27/11 A2981 RMK A01 T02740110  RH  036%=      5-min Rain = 0
KPG1 232325Z 07008KT 27/11 A2981 RMK A01 T02730110  RH  036%=      5-min Rain = 0
KPG1 232326Z 05016G22KT 27/11 A2981 RMK A01 T02740112  RH  036%=      5-min Rain = 0
KPG1 232327Z 07018KT 27/11 A2981 RMK A01 T02740110  RH  036%=      5-min Rain = 0
KPG1 232328Z 06012KT 27/11 A2981 RMK A01 T02700109  RH  037%=      5-min Rain = 0
KPG1 232329Z 09009KT 27/11 A2981 RMK A01 T02690110  RH  037%=      5-min Rain = 0
KPG1 232330Z 07014G24KT 27/11 A2981 RMK A01 T02710110  RH  037%=      5-min Rain = 0
KPG1 232331Z 06020KT 27/11 A2981 RMK A01 T02720108  RH  036%=      5-min Rain = 0
KPG1 232332Z 06017KT 27/11 A2981 RMK A01 T02700106  RH  036%=      5-min Rain = 0
KPG1 232333Z 08014G19KT 27/11 A298 RMK A01 T02690106  RH  036%=      5-min Rain = 0
KPG1 232334Z 07015KT 27/11 A298 RMK A01 T02700107  RH  036%=      5-min Rain = 0
KPG1 232335Z 05016KT 27/11 A298 RMK A01 T02710107  RH  036%=      5-min Rain = 0
KPG1 232336Z 07014KT 27/11 A298 RMK A01 T02710106  RH  036%=      5-min Rain = 0
KPG1 232337Z 06014G19KT 27/11 A298 RMK A01 T02700106  RH  036%=      5-min Rain = 0
KPG1 232338Z 07018KT 27/11 A298 RMK A01 T02700108  RH  036%=      5-min Rain = 0
KPG1 232339Z 07016G23KT 27/11 A298 RMK A01 T02690109  RH  037%=      5-min Rain = 0
KPG1 232340Z 05014KT 27/11 A298 RMK A01 T02670110  RH  037%=      5-min Rain = 0
KPG1 232341Z 06013G18KT 27/11 A298 RMK A01 T02670110  RH  037%=      5-min Rain = 0
KPG1 232342Z 06015G20KT 27/11 A298 RMK A01 T02680111  RH  037%=      5-min Rain = 0
KPG1 232343Z 06018KT 27/11 A298 RMK A01 T02690112  RH  037%=      5-min Rain = 0
KPG1 232344Z 09018KT 27/11 A298 RMK A01 T02690110  RH  037%=      5-min Rain = 0
KPG1 232345Z 08014G19KT 27/11 A298 RMK A01 T02680109  RH  037%=      5-min Rain = 0
KPG1 232346Z 06012G17KT 27/11 A298 RMK A01 T02660108  RH  037%=      5-min Rain = 0
KPG1 232347Z 06015KT 27/11 A298 RMK A01 T02660108  RH  037%=      5-min Rain = 0
KPG1 232348Z 05017KT 27/11 A298 RMK A01 T02670108  RH  037%=      5-min Rain = 0
KPG1 232349Z 06014G19KT 27/11 A298 RMK A01 T02670108  RH  037%=      5-min Rain = 0
KPG1 232350Z 08011KT 27/11 A298 RMK A01 T02680107  RH  037%=      5-min Rain = 0
KPG1 232351Z 06011KT 27/11 A298 RMK A01 T02690106  RH  036%=      5-min Rain = 0
KPG1 232352Z 06013KT 27/11 A298 RMK A01 T02700106  RH  036%=      5-min Rain = 0
KPG1 232353Z 06014KT 27/11 A298 RMK A01 T02710105  RH  035%=      5-min Rain = 0
KPG1 232354Z 08012KT 27/10 A298 RMK A01 T02710104  RH  035%=      5-min Rain = 0
KPG1 232355Z 08012KT 27/10 A298 RMK A01 T02700104  RH  035%=      5-min Rain = 0
KPG1 232356Z 08015KT 27/10 A298 RMK A01 T02690103  RH  035%=      5-min Rain = 0
KPG1 232357Z 08012KT 27/10 A298 RMK A01 T02680103  RH  035%=      5-min Rain = 0
KPG1 232358Z 08016G21KT 27/10 A298 RMK A01 T02680102  RH  035%=      5-min Rain = 0
KPG1 232359Z 09016KT 27/10 A298 RMK A01 T02680102  RH  035%=      5-min Rain = 0
KPG1 240000Z 08013KT 27/10 A298 RMK A01 T02670101  RH  035%=      5-min Rain = 0
KPG1 240001Z 06013KT 27/10 A298 RMK A01 T02670101  RH  035%=      5-min Rain = 0
KPG1 240002Z 05014G19KT 27/10 A298 RMK A01 T02670101  RH  035%=      5-min Rain = 0
KPG1 240003Z 05017KT 27/10 A298 RMK A01 T02670100  RH  035%=      5-min Rain = 0
KPG1 240004Z 06013G18KT 27/10 A298 RMK A01 T02650101  RH  036%=      5-min Rain = 0
KPG1 240005Z 05017KT 27/10 A298 RMK A01 T02650101  RH  036%=      5-min Rain = 0
KPG1 240006Z 06015KT 27/10 A298 RMK A01 T02650101  RH  036%=      5-min Rain = 0
KPG1 240007Z 06017KT 27/10 A298 RMK A01 T02660103  RH  036%=      5-min Rain = 0
KPG1 240008Z 06015KT 27/11 A298 RMK A01 T02660106  RH  037%=      5-min Rain = 0
KPG1 240009Z 07010KT 27/11 A298 RMK A01 T02660106  RH  037%=      5-min Rain = 0
KPG1 240010Z 05013G18KT 27/11 A298 RMK A01 T02670107  RH  037%=      5-min Rain = 0
KPG1 240011Z 06015KT 27/11 A298 RMK A01 T02680107  RH  037%=      5-min Rain = 0
KPG1 240012Z 05017KT 27/11 A298 RMK A01 T02680106  RH  036%=      5-min Rain = 0
KPG1 240013Z 05018KT 27/11 A298 RMK A01 T02660105  RH  037%=      5-min Rain = 0
KPG1 240014Z 06017KT 27/11 A298 RMK A01 T02650106  RH  037%=      5-min Rain = 0
KPG1 240015Z 05017KT 26/11 A298 RMK A01 T02640107  RH  037%=      5-min Rain = 0
KPG1 240016Z 06019KT 26/11 A298 RMK A01 T02630106  RH  037%=      5-min Rain = 0
KPG1 240017Z 05019KT 26/11 A298 RMK A01 T02630107  RH  038%=      5-min Rain = 0
KPG1 240018Z 06016G21KT 26/11 A298 RMK A01 T02620107  RH  038%=      5-min Rain = 0
KPG1 240019Z 06016G22KT 26/11 A298 RMK A01 T02620108  RH  038%=      5-min Rain = 0
KPG1 240020Z 06013G18KT 26/11 A298 RMK A01 T02620109  RH  038%=      5-min Rain = 0
KPG1 240021Z 06014KT 26/11 A298 RMK A01 T02620109  RH  038%=      5-min Rain = 0
KPG1 240022Z 06017KT 26/11 A298 RMK A01 T02630109  RH  038%=      5-min Rain = 0
KPG1 240023Z 06013KT 26/11 A298 RMK A01 T02630111  RH  039%=      5-min Rain = 0
KPG1 240024Z 05014G20KT 26/11 A298 RMK A01 T02630113  RH  039%=      5-min Rain = 0
KPG1 240025Z 06019KT 26/12 A298 RMK A01 T02620116  RH  040%=      5-min Rain = 0
KPG1 240026Z 07017KT 26/12 A298 RMK A01 T02600117  RH  041%=      5-min Rain = 0
KPG1 240027Z 06013KT 26/12 A298 RMK A01 T02590117  RH  041%=      5-min Rain = 0
KPG1 240028Z 06019G25KT 26/12 A298 RMK A01 T02590117  RH  041%=      5-min Rain = 0
KPG1 240029Z 06018G24KT 26/12 A298 RMK A01 T02580116  RH  041%=      5-min Rain = 0
KPG1 240030Z 05014G19KT 26/12 A298 RMK A01 T02580116  RH  041%=      5-min Rain = 0
KPG1 240031Z 05016G22KT 26/12 A298 RMK A01 T02570117  RH  042%=      5-min Rain = 0
KPG1 240032Z 07020KT 26/12 A298 RMK A01 T02570120  RH  042%=      5-min Rain = 0
KPG1 240033Z 06015G22KT 26/12 A298 RMK A01 T02550120  RH  043%=      5-min Rain = 0
KPG1 240034Z 05015G21KT 26/12 A298 RMK A01 T02550122  RH  044%=      5-min Rain = 0
KPG1 240035Z 06020KT 25/13 A298 RMK A01 T02540125  RH  044%=      5-min Rain = 0
KPG1 240036Z 06019KT 25/13 A298 RMK A01 T02530127  RH  045%=      5-min Rain = 0
KPG1 240037Z 06017G23KT 25/13 A298 RMK A01 T02520127  RH  046%=      5-min Rain = 0
KPG1 240038Z 05014KT 25/13 A298 RMK A01 T02520127  RH  046%=      5-min Rain = 0
KPG1 240039Z 06017G23KT 25/13 A298 RMK A01 T02510128  RH  046%=      5-min Rain = 0
KPG1 240040Z 05013G18KT 25/13 A298 RMK A01 T02510128  RH  046%=      5-min Rain = 0
KPG1 240041Z 05013KT 25/13 A298 RMK A01 T02500128  RH  046%=      5-min Rain = 0
KPG1 240042Z 06017G22KT 25/13 A298 RMK A01 T02500127  RH  046%=      5-min Rain = 0
KPG1 240043Z 06020G25KT 25/13 A298 RMK A01 T02500128  RH  046%=      5-min Rain = 0
KPG1 240044Z 05017KT 25/13 A298 RMK A01 T02500128  RH  046%=      5-min Rain = 0
KPG1 240045Z 06018KT 25/13 A298 RMK A01 T02500127  RH  046%=      5-min Rain = 0
KPG1 240046Z 05016KT 25/13 A298 RMK A01 T02500128  RH  047%=      5-min Rain = 0
KPG1 240047Z 05012KT 25/13 A298 RMK A01 T02490127  RH  047%=      5-min Rain = 0
KPG1 240048Z 05013KT 25/13 A298 RMK A01 T02490126  RH  046%=      5-min Rain = 0
KPG1 240049Z 06017G22KT 25/13 A298 RMK A01 T02490128  RH  047%=      5-min Rain = 0
KPG1 240050Z 06018KT 25/13 A298 RMK A01 T02490130  RH  048%=      5-min Rain = 0
KPG1 240051Z 06017KT 25/13 A298 RMK A01 T02480131  RH  048%=      5-min Rain = 0
KPG1 240052Z 06016G23KT 25/13 A298 RMK A01 T02470130  RH  048%=      5-min Rain = 0
KPG1 240053Z 06016G21KT 25/13 A2981 RMK A01 T02480131  RH  048%=      5-min Rain = 0
KPG1 240054Z 06016KT 25/13 A2981 RMK A01 T02480133  RH  049%=      5-min Rain = 0
KPG1 240055Z 05017KT 25/13 A2981 RMK A01 T02480133  RH  049%=      5-min Rain = 0
KPG1 240056Z 07014KT 25/13 A2981 RMK A01 T02470133  RH  049%=      5-min Rain = 0
KPG1 240057Z 06014G20KT 25/13 A2981 RMK A01 T02470134  RH  049%=      5-min Rain = 0
KPG1 240058Z 07013G18KT 25/14 A2981 RMK A01 T02470136  RH  050%=      5-min Rain = 0
KPG1 240059Z 05016G21KT 25/14 A2981 RMK A01 T02470138  RH  051%=      5-min Rain = 0
KPG1 240100Z 06013G18KT 25/14 A2981 RMK A01 T02470139  RH  051%=      5-min Rain = 0
KPG1 240101Z 06016G21KT 25/14 A2981 RMK A01 T02460139  RH  051%=      5-min Rain = 0
KPG1 240102Z 06017G23KT 25/14 A2981 RMK A01 T02460141  RH  052%=      5-min Rain = 0
KPG1 240103Z 06016G21KT 25/14 A2981 RMK A01 T02450142  RH  053%=      5-min Rain = 0
KPG1 240104Z 06017KT 25/14 A2981 RMK A01 T02450142  RH  053%=      5-min Rain = 0
KPG1 240105Z 06016G21KT 24/14 A2981 RMK A01 T02440143  RH  053%=      5-min Rain = 0
KPG1 240106Z 06018KT 25/14 A2982 RMK A01 T02450144  RH  053%=      5-min Rain = 0
KPG1 240107Z 06016KT 25/15 A2982 RMK A01 T02450145  RH  054%=      5-min Rain = 0
KPG1 240108Z 06012G18KT 24/15 A2982 RMK A01 T02440145  RH  054%=      5-min Rain = 0
KPG1 240109Z 05013KT 24/15 A2982 RMK A01 T02440145  RH  054%=      5-min Rain = 0
KPG1 240110Z 06016KT 24/15 A2982 RMK A01 T02440146  RH  054%=      5-min Rain = 0
KPG1 240111Z 06017G23KT 24/15 A2982 RMK A01 T02430147  RH  055%=      5-min Rain = 0
KPG1 240112Z 06018KT 24/15 A2982 RMK A01 T02420148  RH  056%=      5-min Rain = 0
KPG1 240113Z 06019G25KT 24/15 A2982 RMK A01 T02410148  RH  056%=      5-min Rain = 0
KPG1 240114Z 06017G24KT 24/15 A2982 RMK A01 T02400148  RH  056%=      5-min Rain = 0
KPG1 240115Z 07017KT 24/15 A2983 RMK A01 T02400148  RH  056%=      5-min Rain = 0
KPG1 240116Z 06016G22KT 24/15 A2983 RMK A01 T02400148  RH  056%=      5-min Rain = 0
KPG1 240117Z 06014KT 24/15 A2983 RMK A01 T02390148  RH  056%=      5-min Rain = 0
KPG1 240118Z 06017G24KT 24/15 A2983 RMK A01 T02390148  RH  057%=      5-min Rain = 0
KPG1 240119Z 07017KT 24/15 A2983 RMK A01 T02390148  RH  057%=      5-min Rain = 0
KPG1 240120Z 06018KT 24/15 A2983 RMK A01 T02380148  RH  057%=      5-min Rain = 0
KPG1 240121Z 06014KT 24/15 A2983 RMK A01 T02380148  RH  057%=      5-min Rain = 0
KPG1 240122Z 05012G17KT 24/15 A2983 RMK A01 T02380148  RH  057%=      5-min Rain = 0
KPG1 240123Z 04017KT 24/15 A2983 RMK A01 T02380149  RH  057%=      5-min Rain = 0
KPG1 240124Z 04014KT 24/15 A2983 RMK A01 T02370149  RH  058%=      5-min Rain = 0
KPG1 240125Z 03018KT 24/15 A2983 RMK A01 T02360149  RH  058%=      5-min Rain = 0
KPG1 240126Z 03017KT 24/15 A2983 RMK A01 T02360149  RH  058%=      5-min Rain = 0
KPG1 240127Z 03018KT 24/15 A2983 RMK A01 T02350149  RH  058%=      5-min Rain = 0
KPG1 240128Z 03019KT 23/15 A2983 RMK A01 T02340149  RH  059%=      5-min Rain = 0
KPG1 240129Z 03021KT 23/15 A2983 RMK A01 T02340150  RH  059%=      5-min Rain = 0
KPG1 240130Z 03018G26KT 23/15 A2983 RMK A01 T02330150  RH  060%=      5-min Rain = 0
KPG1 240131Z 03020KT 23/15 A2984 RMK A01 T02320150  RH  060%=      5-min Rain = 0
KPG1 240132Z 03019G24KT 23/15 A2984 RMK A01 T02320151  RH  060%=      5-min Rain = 0
KPG1 240133Z 03021KT 23/15 A2983 RMK A01 T02320151  RH  060%=      5-min Rain = 0
KPG1 240134Z 03022G29KT 23/15 A2983 RMK A01 T02310152  RH  061%=      5-min Rain = 0
KPG1 240135Z 03021KT 23/15 A2983 RMK A01 T02310152  RH  061%=      5-min Rain = 0
KPG1 240136Z 03024KT 23/15 A2983 RMK A01 T02310152  RH  061%=      5-min Rain = 0
KPG1 240137Z 03022G29KT 23/15 A2983 RMK A01 T02310152  RH  061%=      5-min Rain = 0
KPG1 240138Z 03022G28KT 23/15 A2983 RMK A01 T02300152  RH  061%=      5-min Rain = 0
KPG1 240139Z 03019G25KT 23/15 A2984 RMK A01 T02300153  RH  062%=      5-min Rain = 0
KPG1 240140Z 03017KT 23/15 A2984 RMK A01 T02300153  RH  062%=      5-min Rain = 0
KPG1 240141Z 04016KT 23/15 A2984 RMK A01 T02300153  RH  062%=      5-min Rain = 0
KPG1 240142Z 03020KT 23/15 A2983 RMK A01 T02300153  RH  062%=      5-min Rain = 0
KPG1 240143Z 04016KT 23/15 A2983 RMK A01 T02300153  RH  062%=      5-min Rain = 0
KPG1 240144Z 03018KT 23/15 A2983 RMK A01 T02300152  RH  062%=      5-min Rain = 0
KPG1 240145Z 03018KT 23/15 A2983 RMK A01 T02300153  RH  062%=      5-min Rain = 0
KPG1 240146Z 04018G23KT 23/15 A2983 RMK A01 T02300153  RH  062%=      5-min Rain = 0
KPG1 240147Z 03022KT 23/15 A2983 RMK A01 T02290153  RH  062%=      5-min Rain = 0
KPG1 240148Z 03022G27KT 23/15 A2983 RMK A01 T02290153  RH  062%=      5-min Rain = 0
KPG1 240149Z 03020G25KT 23/15 A2983 RMK A01 T02290154  RH  062%=      5-min Rain = 0
KPG1 240150Z 04019G24KT 23/15 A2983 RMK A01 T02280154  RH  063%=      5-min Rain = 0
KPG1 240151Z 04015G20KT 23/15 A2983 RMK A01 T02290154  RH  063%=      5-min Rain = 0
KPG1 240152Z 04014KT 23/15 A2983 RMK A01 T02290154  RH  063%=      5-min Rain = 0
KPG1 240153Z 04020KT 23/15 A2983 RMK A01 T02280154  RH  063%=      5-min Rain = 0
KPG1 240154Z 03022G30KT 23/15 A2983 RMK A01 T02280154  RH  063%=      5-min Rain = 0
KPG1 240155Z 04024G31KT 23/15 A2983 RMK A01 T02280154  RH  063%=      5-min Rain = 0
KPG1 240156Z 04022G31KT 23/15 A2983 RMK A01 T02270154  RH  063%=      5-min Rain = 0
KPG1 240157Z 03024G31KT 23/15 A2983 RMK A01 T02270154  RH  064%=      5-min Rain = 0
KPG1 240158Z 04026KT 23/15 A2983 RMK A01 T02260154  RH  064%=      5-min Rain = 0
KPG1 240159Z 04025G30KT 23/15 A2983 RMK A01 T02250154  RH  064%=      5-min Rain = 0
KPG1 240200Z 03027G33KT 22/15 A2983 RMK A01 T02240154  RH  065%=      5-min Rain = 0
KPG1 240201Z 03025KT 22/15 A2983 RMK A01 T02240154  RH  065%=      5-min Rain = 0
KPG1 240202Z 04021G28KT 22/15 A2983 RMK A01 T02240154  RH  064%=      5-min Rain = 0
KPG1 240203Z 04020KT 22/15 A2983 RMK A01 T02240153  RH  064%=      5-min Rain = 0
KPG1 240204Z 04018KT 22/15 A2984 RMK A01 T02240153  RH  064%=      5-min Rain = 0
KPG1 240205Z 06017G24KT 22/15 A2984 RMK A01 T02240153  RH  064%=      5-min Rain = 0
KPG1 240206Z 06013G18KT 22/15 A2984 RMK A01 T02240152  RH  064%=      5-min Rain = 0
KPG1 240207Z 07021KT 22/15 A2984 RMK A01 T02240152  RH  064%=      5-min Rain = 0
KPG1 240208Z 05016G24KT 22/15 A2985 RMK A01 T02240152  RH  064%=      5-min Rain = 0
KPG1 240209Z 03014KT 22/15 A2985 RMK A01 T02240152  RH  064%=      5-min Rain = 0
KPG1 240210Z 03013KT 22/15 A2985 RMK A01 T02230153  RH  065%=      5-min Rain = 0
KPG1 240211Z 04013KT 22/15 A2985 RMK A01 T02240154  RH  064%=      5-min Rain = 0
KPG1 240212Z 04017KT 22/15 A2985 RMK A01 T02230152  RH  064%=      5-min Rain = 0
KPG1 240213Z 03018KT 22/15 A2985 RMK A01 T02240153  RH  064%=      5-min Rain = 0
KPG1 240214Z 03019KT 22/15 A2985 RMK A01 T02230152  RH  064%=      5-min Rain = 0
KPG1 240215Z 03019KT 22/15 A2985 RMK A01 T02230153  RH  064%=      5-min Rain = 0
KPG1 240216Z 03019KT 22/15 A2986 RMK A01 T02230153  RH  064%=      5-min Rain = 0
KPG1 240217Z 03020KT 22/15 A2986 RMK A01 T02230153  RH  065%=      5-min Rain = 0
KPG1 240218Z 03019G24KT 22/15 A2986 RMK A01 T02230154  RH  065%=      5-min Rain = 0
KPG1 240219Z 03021G26KT 22/15 A2986 RMK A01 T02230154  RH  065%=      5-min Rain = 0
KPG1 240220Z 03023KT 22/16 A2986 RMK A01 T02230155  RH  065%=      5-min Rain = 0
KPG1 240221Z 04022G27KT 22/16 A2986 RMK A01 T02220155  RH  066%=      5-min Rain = 0
KPG1 240222Z 04023KT 22/16 A2986 RMK A01 T02220156  RH  066%=      5-min Rain = 0
KPG1 240223Z 04022KT 22/16 A2985 RMK A01 T02220156  RH  066%=      5-min Rain = 0
KPG1 240224Z 03023KT 22/16 A2985 RMK A01 T02220156  RH  066%=      5-min Rain = 0
KPG1 240225Z 04024KT 22/16 A2985 RMK A01 T02220156  RH  066%=      5-min Rain = 0
KPG1 240226Z 03024KT 22/16 A2985 RMK A01 T02220156  RH  066%=      5-min Rain = 0
KPG1 240227Z 03024KT 22/16 A2985 RMK A01 T02220156  RH  066%=      5-min Rain = 0
KPG1 240228Z 03024KT 22/16 A2984 RMK A01 T02210156  RH  066%=      5-min Rain = 0
KPG1 240229Z 03025G31KT 22/16 A2984 RMK A01 T02210155  RH  066%=      5-min Rain = 0
KPG1 240230Z 03024G31KT 22/16 A2985 RMK A01 T02210156  RH  066%=      5-min Rain = 0
KPG1 240231Z 03023KT 22/16 A2985 RMK A01 T02210155  RH  066%=      5-min Rain = 0
KPG1 240232Z 03023G30KT 22/16 A2984 RMK A01 T02210156  RH  066%=      5-min Rain = 0
KPG1 240233Z 03024G30KT 22/16 A2985 RMK A01 T02210156  RH  066%=      5-min Rain = 0
KPG1 240234Z 03024KT 22/16 A2985 RMK A01 T02210156  RH  067%=      5-min Rain = 0
KPG1 240235Z 03021KT 22/16 A2985 RMK A01 T02210156  RH  067%=      5-min Rain = 0
KPG1 240236Z 04019G27KT 22/16 A2985 RMK A01 T02200156  RH  067%=      5-min Rain = 0
KPG1 240237Z 03024G32KT 22/16 A2984 RMK A01 T02200157  RH  067%=      5-min Rain = 0
KPG1 240238Z 03024G31KT 22/16 A2984 RMK A01 T02200157  RH  067%=      5-min Rain = 0
KPG1 240239Z 03023G30KT 22/16 A2984 RMK A01 T02200157  RH  068%=      5-min Rain = 0
KPG1 240240Z 03024G32KT 22/16 A2984 RMK A01 T02190158  RH  068%=      5-min Rain = 0
KPG1 240241Z 03022G30KT 22/16 A2984 RMK A01 T02190158  RH  068%=      5-min Rain = 0
KPG1 240242Z 03024G29KT 22/16 A2984 RMK A01 T02190158  RH  068%=      5-min Rain = 0
KPG1 240243Z 03023G28KT 22/16 A2984 RMK A01 T02190158  RH  069%=      5-min Rain = 0
KPG1 240244Z 03021G26KT 22/16 A2984 RMK A01 T02180159  RH  069%=      5-min Rain = 0
KPG1 240245Z 03022G29KT 22/16 A2984 RMK A01 T02180159  RH  069%=      5-min Rain = 0
KPG1 240246Z 03023G30KT 22/16 A2984 RMK A01 T02180159  RH  069%=      5-min Rain = 0
KPG1 240247Z 03022G29KT 22/16 A2984 RMK A01 T02180159  RH  069%=      5-min Rain = 0
KPG1 240248Z 03024G30KT 22/16 A2984 RMK A01 T02180159  RH  069%=      5-min Rain = 0
KPG1 240249Z 04022KT 22/16 A2984 RMK A01 T02180159  RH  069%=      5-min Rain = 0
KPG1 240250Z 03023G30KT 22/16 A2984 RMK A01 T02170159  RH  070%=      5-min Rain = 0
KPG1 240251Z 04020G31KT 22/16 A2984 RMK A01 T02170160  RH  070%=      5-min Rain = 0
KPG1 240252Z 04019KT 22/16 A2985 RMK A01 T02170160  RH  070%=      5-min Rain = 0
KPG1 240253Z 03018G24KT 22/16 A2985 RMK A01 T02180160  RH  070%=      5-min Rain = 0
KPG1 240254Z 03020KT 22/16 A2985 RMK A01 T02180160  RH  070%=      5-min Rain = 0
KPG1 240255Z 03021KT 22/16 A2985 RMK A01 T02170160  RH  070%=      5-min Rain = 0
KPG1 240256Z 03020KT 22/16 A2985 RMK A01 T02180161  RH  070%=      5-min Rain = 0
KPG1 240257Z 03023G28KT 22/16 A2985 RMK A01 T02170160  RH  070%=      5-min Rain = 0
KPG1 240258Z 03020KT 22/16 A2984 RMK A01 T02170160  RH  070%=      5-min Rain = 0
KPG1 240259Z 04021G28KT 22/16 A2985 RMK A01 T02170160  RH  070%=      5-min Rain = 0
KPG1 240300Z 03020KT 22/16 A2985 RMK A01 T02160160  RH  070%=      5-min Rain = 0
KPG1 240301Z 04021KT 22/16 A2985 RMK A01 T02160160  RH  070%=      5-min Rain = 0
KPG1 240302Z 04019KT 22/16 A2985 RMK A01 T02160161  RH  071%=      5-min Rain = 0
KPG1 240303Z 04015KT 22/16 A2985 RMK A01 T02160161  RH  071%=      5-min Rain = 0
KPG1 240304Z 04016KT 22/16 A2986 RMK A01 T02160160  RH  071%=      5-min Rain = 0
KPG1 240305Z 03016G21KT 22/16 A2986 RMK A01 T02160161  RH  071%=      5-min Rain = 0
KPG1 240306Z 03018KT 22/16 A2986 RMK A01 T02160161  RH  071%=      5-min Rain = 0
KPG1 240307Z 03018G24KT 22/16 A2986 RMK A01 T02150162  RH  071%=      5-min Rain = 0
KPG1 240308Z 03017KT 22/16 A2986 RMK A01 T02150162  RH  072%=      5-min Rain = 0
KPG1 240309Z 03017G22KT 21/17 A2986 RMK A01 T02140165  RH  074%=      5-min Rain = 0
KPG1 240310Z 03015KT 21/17 A2986 RMK A01 T02110165  RH  075%=      5-min Rain = 0
KPG1 240311Z 03017KT 21/17 A2986 RMK A01 T02100167  RH  077%=      5-min Rain = 0
KPG1 240312Z 03017G22KT 21/17 A2986 RMK A01 T02080169  RH  078%=      5-min Rain = 0
KPG1 240313Z 03018KT 21/17 A2986 RMK A01 T02070169  RH  079%=      5-min Rain = 0.01
KPG1 240314Z 04015G21KT 21/17 A2987 RMK A01 T02060169  RH  079%=      5-min Rain = 0.01
KPG1 240315Z 03017KT 21/17 A2987 RMK A01 T02060169  RH  080%=      5-min Rain = 0
KPG1 240316Z 04016KT 21/17 A2987 RMK A01 T02050170  RH  080%=      5-min Rain = 0.01
KPG1 240317Z 04016KT 20/17 A2987 RMK A01 T02040170  RH  080%=      5-min Rain = 0
KPG1 240318Z 04014KT 20/17 A2987 RMK A01 T02040171  RH  081%=      5-min Rain = 0
KPG1 240319Z 03015KT 20/17 A2987 RMK A01 T02040171  RH  081%=      5-min Rain = 0.01
KPG1 240320Z 03016KT 20/17 A2987 RMK A01 T02040170  RH  081%=      5-min Rain = 0
KPG1 240321Z 04011G17KT 20/17 A2987 RMK A01 T02030171  RH  082%=      5-min Rain = 0
KPG1 240322Z 04011KT 20/17 A2987 RMK A01 T02030172  RH  083%=      5-min Rain = 0
KPG1 240323Z 03011KT 20/17 A2987 RMK A01 T02020174  RH  084%=      5-min Rain = 0
KPG1 240324Z 04010KT 20/17 A2987 RMK A01 T02010174  RH  084%=      5-min Rain = 0.01
KPG1 240325Z 04009KT 20/18 A2987 RMK A01 T02010175  RH  085%=      5-min Rain = 0.01
KPG1 240326Z 04009KT 20/17 A2987 RMK A01 T02000174  RH  085%=      5-min Rain = 0.02
KPG1 240327Z 03009KT 20/17 A2987 RMK A01 T01990174  RH  086%=      5-min Rain = 0.02
KPG1 240328Z 04009KT 20/18 A2987 RMK A01 T01980175  RH  086%=      5-min Rain = 0.03
KPG1 240329Z 03014KT 20/17 A2987 RMK A01 T01980174  RH  086%=      5-min Rain = 0.01
KPG1 240330Z 03014KT 20/17 A2987 RMK A01 T01980172  RH  085%=      5-min Rain = 0.03
KPG1 240331Z 03015KT 20/17 A2987 RMK A01 T01990174  RH  085%=      5-min Rain = 0.05
KPG1 240332Z 04014KT 20/17 A2987 RMK A01 T01970173  RH  086%=      5-min Rain = 0.05
KPG1 240333Z 04017KT 20/17 A2987 RMK A01 T01960173  RH  086%=      5-min Rain = 0.03
KPG1 240334Z 04015KT 19/18 A2988 RMK A01 T01940175  RH  088%=      5-min Rain = 0.02
KPG1 240335Z 04015KT 19/18 A2988 RMK A01 T01930176  RH  090%=      5-min Rain = 0.03
KPG1 240336Z 04014KT 19/18 A2988 RMK A01 T01910175  RH  091%=      5-min Rain = 0.02
KPG1 240337Z 04015KT 19/18 A2988 RMK A01 T01910176  RH  091%=      5-min Rain = 0.01
KPG1 240338Z 03014KT 19/18 A2988 RMK A01 T01910176  RH  091%=      5-min Rain = 0.01
KPG1 240339Z 03014KT 19/18 A2988 RMK A01 T01910178  RH  092%=      5-min Rain = 0
KPG1 240340Z 04013KT 19/18 A2988 RMK A01 T01910178  RH  092%=      5-min Rain = 0.01
KPG1 240341Z 04017KT 19/18 A2988 RMK A01 T01920178  RH  092%=      5-min Rain = 0
KPG1 240342Z 04016KT 19/18 A2988 RMK A01 T01920177  RH  091%=      5-min Rain = 0.02
KPG1 240343Z 04017KT 19/18 A2988 RMK A01 T01920177  RH  091%=      5-min Rain = 0.01
KPG1 240344Z 04019KT 19/18 A2987 RMK A01 T01920177  RH  091%=      5-min Rain = 0.01
KPG1 240345Z 04020KT 19/18 A2987 RMK A01 T01920177  RH  091%=      5-min Rain = 0
KPG1 240346Z 04021KT 19/17 A2987 RMK A01 T01920174  RH  090%=      5-min Rain = 0.01
KPG1 240347Z 04020KT 19/17 A2987 RMK A01 T01910174  RH  090%=      5-min Rain = 0
KPG1 240348Z 03017KT 19/17 A2987 RMK A01 T01910174  RH  090%=      5-min Rain = 0
KPG1 240349Z 04016KT 19/18 A2988 RMK A01 T01910176  RH  091%=      5-min Rain = 0
KPG1 240350Z 04017KT 19/18 A2988 RMK A01 T01910177  RH  092%=      5-min Rain = 0.01
KPG1 240351Z 04018KT 19/18 A2988 RMK A01 T01900177  RH  093%=      5-min Rain = 0
KPG1 240352Z 03016KT 19/18 A2988 RMK A01 T01890178  RH  093%=      5-min Rain = 0
KPG1 240353Z 03019KT 19/18 A2988 RMK A01 T01890179  RH  094%=      5-min Rain = 0
KPG1 240354Z 03020KT 19/18 A2988 RMK A01 T01890178  RH  094%=      5-min Rain = 0
KPG1 240355Z 04020KT 19/18 A2988 RMK A01 T01890178  RH  094%=      5-min Rain = 0.01
KPG1 240356Z 04021KT 19/18 A2988 RMK A01 T01880178  RH  094%=      5-min Rain = 0
KPG1 240357Z 04021KT 19/18 A2988 RMK A01 T01870178  RH  094%=      5-min Rain = 0
KPG1 240358Z 04020KT 19/18 A2988 RMK A01 T01860178  RH  095%=      5-min Rain = 0
KPG1 240359Z 04016KT 19/18 A2988 RMK A01 T01850178  RH  096%=      5-min Rain = 0
KPG1 240400Z 04018KT 18/18 A2989 RMK A01 T01840178  RH  096%=      5-min Rain = 0
KPG1 240401Z 05017KT 18/18 A2989 RMK A01 T01840177  RH  095%=      5-min Rain = 0
KPG1 240402Z 06016G21KT 18/18 A2989 RMK A01 T01840176  RH  095%=      5-min Rain = 0
KPG1 240403Z 08015KT 18/18 A299 RMK A01 T01840177  RH  095%=      5-min Rain = 0
KPG1 240404Z 08017KT 18/18 A299 RMK A01 T01830177  RH  096%=      5-min Rain = 0
KPG1 240405Z 08013KT 18/18 A299 RMK A01 T01820176  RH  096%=      5-min Rain = 0
KPG1 240406Z 06012KT 18/18 A299 RMK A01 T01810176  RH  097%=      5-min Rain = 0
KPG1 240407Z 05016G22KT 18/18 A299 RMK A01 T01810175  RH  097%=      5-min Rain = 0
KPG1 240408Z 04017KT 18/17 A299 RMK A01 T01800174  RH  096%=      5-min Rain = 0
KPG1 240409Z 04017KT 18/17 A299 RMK A01 T01810174  RH  096%=      5-min Rain = 0
KPG1 240410Z 05020KT 18/17 A2989 RMK A01 T01810173  RH  095%=      5-min Rain = 0
KPG1 240411Z 05021KT 18/17 A2989 RMK A01 T01820173  RH  095%=      5-min Rain = 0
KPG1 240412Z 04020G25KT 18/17 A2989 RMK A01 T01820173  RH  095%=      5-min Rain = 0
KPG1 240413Z 03021KT 18/17 A2989 RMK A01 T01820174  RH  095%=      5-min Rain = 0
KPG1 240414Z 03020KT 18/18 A2988 RMK A01 T01820175  RH  096%=      5-min Rain = 0.01
KPG1 240415Z 03017KT 18/18 A2987 RMK A01 T01820176  RH  097%=      5-min Rain = 0
KPG1 240416Z 03022G29KT 18/18 A2986 RMK A01 T01810177  RH  097%=      5-min Rain = 0
KPG1 240417Z 04024G29KT 18/17 A2985 RMK A01 T01800174  RH  096%=      5-min Rain = 0
KPG1 240418Z 04026KT 18/17 A2985 RMK A01 T01800171  RH  095%=      5-min Rain = 0
KPG1 240419Z 04022KT 18/17 A2985 RMK A01 T01790169  RH  094%=      5-min Rain = 0
KPG1 240420Z 04024KT 18/17 A2985 RMK A01 T01790167  RH  093%=      5-min Rain = 0
KPG1 240421Z 04022KT 18/17 A2986 RMK A01 T01790166  RH  093%=      5-min Rain = 0
KPG1 240422Z 04022KT 18/17 A2986 RMK A01 T01790166  RH  092%=      5-min Rain = 0
KPG1 240423Z 04018KT 18/17 A2987 RMK A01 T01800165  RH  091%=      5-min Rain = 0
KPG1 240424Z 03015KT 18/17 A2988 RMK A01 T01800166  RH  092%=      5-min Rain = 0
KPG1 240425Z 03016KT 18/17 A2988 RMK A01 T01790167  RH  093%=      5-min Rain = 0
KPG1 240426Z 03015KT 18/17 A2988 RMK A01 T01780167  RH  093%=      5-min Rain = 0.01
KPG1 240427Z 04018KT 18/17 A2988 RMK A01 T01780168  RH  094%=      5-min Rain = 0
KPG1 240428Z 04019KT 18/17 A2988 RMK A01 T01780167  RH  093%=      5-min Rain = 0
KPG1 240429Z 04018KT 18/17 A2988 RMK A01 T01780166  RH  093%=      5-min Rain = 0
KPG1 240430Z 04017KT 18/17 A2988 RMK A01 T01780167  RH  093%=      5-min Rain = 0
KPG1 240431Z 04019KT 18/17 A2988 RMK A01 T01780168  RH  094%=      5-min Rain = 0
KPG1 240432Z 04019KT 18/17 A2988 RMK A01 T01780167  RH  093%=      5-min Rain = 0
KPG1 240433Z 03018KT 18/17 A2988 RMK A01 T01780167  RH  093%=      5-min Rain = 0
KPG1 240434Z 04017KT 18/17 A2989 RMK A01 T01780167  RH  093%=      5-min Rain = 0
KPG1 240435Z 04016KT 18/17 A2989 RMK A01 T01780167  RH  094%=      5-min Rain = 0
KPG1 240436Z 02013KT 18/17 A2989 RMK A01 T01780168  RH  094%=      5-min Rain = 0
KPG1 240437Z 02015KT 18/17 A2989 RMK A01 T01770169  RH  095%=      5-min Rain = 0
KPG1 240438Z 02016KT 18/17 A2989 RMK A01 T01770170  RH  096%=      5-min Rain = 0
KPG1 240439Z 02016KT 18/17 A2989 RMK A01 T01770171  RH  096%=      5-min Rain = 0
KPG1 240440Z 01018G24KT 18/17 A2989 RMK A01 T01770170  RH  096%=      5-min Rain = 0
KPG1 240441Z 01019G24KT 18/17 A2988 RMK A01 T01770170  RH  096%=      5-min Rain = 0
KPG1 240442Z 01018G23KT 18/17 A2988 RMK A01 T01770170  RH  096%=      5-min Rain = 0
KPG1 240443Z 02017G23KT 18/17 A2987 RMK A01 T01760169  RH  095%=      5-min Rain = 0
KPG1 240444Z 03019KT 18/17 A2987 RMK A01 T01760168  RH  095%=      5-min Rain = 0
KPG1 240445Z 03017KT 18/17 A2987 RMK A01 T01760167  RH  095%=      5-min Rain = 0
KPG1 240446Z 02015KT 18/17 A2988 RMK A01 T01750167  RH  095%=      5-min Rain = 0
KPG1 240447Z 02015KT 18/17 A2988 RMK A01 T01760167  RH  095%=      5-min Rain = 0
KPG1 240448Z 02016KT 18/17 A2988 RMK A01 T01750165  RH  094%=      5-min Rain = 0
KPG1 240449Z 02016KT 17/17 A2988 RMK A01 T01740165  RH  094%=      5-min Rain = 0
KPG1 240450Z 01016KT 17/16 A2988 RMK A01 T01740163  RH  093%=      5-min Rain = 0
KPG1 240451Z 02014KT 17/16 A2988 RMK A01 T01740161  RH  092%=      5-min Rain = 0
KPG1 240452Z 02016KT 17/16 A2988 RMK A01 T01740159  RH  091%=      5-min Rain = 0
KPG1 240453Z 02017KT 17/16 A2988 RMK A01 T01740156  RH  089%=      5-min Rain = 0
KPG1 240454Z 01012KT 18/16 A2988 RMK A01 T01750156  RH  088%=      5-min Rain = 0
KPG1 240455Z 01014KT 18/15 A2988 RMK A01 T01750152  RH  087%=      5-min Rain = 0
KPG1 240456Z 02015KT 18/15 A2988 RMK A01 T01750150  RH  085%=      5-min Rain = 0
KPG1 240457Z 02015KT 18/15 A2987 RMK A01 T01760151  RH  085%=      5-min Rain = 0
KPG1 240458Z 02017G23KT 18/15 A2987 RMK A01 T01760152  RH  086%=      5-min Rain = 0
KPG1 240459Z 02018KT 18/15 A2987 RMK A01 T01750150  RH  085%=      5-min Rain = 0

Page generated in 0.0724 seconds.